<?xml version="1.0" encoding="UTF-8" standalone="no" ?>
<gpx xmlns="http://www.topografix.com/GPX/1/1" xmlns:xsi="http://www.w3.org/2001/XMLSchema-instance" xsi:schemaLocation="http://www.topografix.com/GPX/1/1 http://www.topografix.com/GPX/1/1/gpx.xsd" version="1.1" creator="VisuGPX - https://www.visugpx.com">
  <metadata>
    <name>GTR_2022</name>
  </metadata>
  <trk>
    <name><![CDATA[GTR_2022]]></name>
    <trkseg>
      <trkpt lat="45.58593" lon="4.69312">
        <ele>325</ele>
        <time>2021-11-19T21:47:06Z</time>
      </trkpt>
      <trkpt lat="45.58428" lon="4.69326">
        <ele>323</ele>
        <time>2021-11-19T21:47:44Z</time>
      </trkpt>
      <trkpt lat="45.58425" lon="4.69364">
        <ele>322</ele>
        <time>2021-11-19T21:47:51Z</time>
      </trkpt>
      <trkpt lat="45.58429" lon="4.69392">
        <ele>321</ele>
        <time>2021-11-19T21:47:55Z</time>
      </trkpt>
      <trkpt lat="45.58365" lon="4.69436">
        <ele>320</ele>
        <time>2021-11-19T21:48:12Z</time>
      </trkpt>
      <trkpt lat="45.58324" lon="4.69449">
        <ele>319</ele>
        <time>2021-11-19T21:48:22Z</time>
      </trkpt>
      <trkpt lat="45.58273" lon="4.69459">
        <ele>317</ele>
        <time>2021-11-19T21:48:34Z</time>
      </trkpt>
      <trkpt lat="45.58159" lon="4.69467">
        <ele>312</ele>
        <time>2021-11-19T21:49:00Z</time>
      </trkpt>
      <trkpt lat="45.58062" lon="4.69483">
        <ele>304</ele>
        <time>2021-11-19T21:49:23Z</time>
      </trkpt>
      <trkpt lat="45.57955" lon="4.69505">
        <ele>293</ele>
        <time>2021-11-19T21:49:48Z</time>
      </trkpt>
      <trkpt lat="45.57922" lon="4.69537">
        <ele>292</ele>
        <time>2021-11-19T21:49:58Z</time>
      </trkpt>
      <trkpt lat="45.57879" lon="4.69549">
        <ele>287</ele>
        <time>2021-11-19T21:50:08Z</time>
      </trkpt>
      <trkpt lat="45.57831" lon="4.69567">
        <ele>280</ele>
        <time>2021-11-19T21:50:19Z</time>
      </trkpt>
      <trkpt lat="45.57795" lon="4.69555">
        <ele>269</ele>
        <time>2021-11-19T21:50:28Z</time>
      </trkpt>
      <trkpt lat="45.57787" lon="4.69567">
        <ele>268</ele>
        <time>2021-11-19T21:50:31Z</time>
      </trkpt>
      <trkpt lat="45.57783" lon="4.6957">
        <ele>267</ele>
        <time>2021-11-19T21:50:32Z</time>
      </trkpt>
      <trkpt lat="45.57778" lon="4.69569">
        <ele>265</ele>
        <time>2021-11-19T21:50:33Z</time>
      </trkpt>
      <trkpt lat="45.5777" lon="4.69565">
        <ele>263</ele>
        <time>2021-11-19T21:50:35Z</time>
      </trkpt>
      <trkpt lat="45.57756" lon="4.6955">
        <ele>259</ele>
        <time>2021-11-19T21:50:39Z</time>
      </trkpt>
      <trkpt lat="45.5775" lon="4.6953">
        <ele>257</ele>
        <time>2021-11-19T21:50:43Z</time>
      </trkpt>
      <trkpt lat="45.57745" lon="4.69531">
        <ele>257</ele>
        <time>2021-11-19T21:50:44Z</time>
      </trkpt>
      <trkpt lat="45.5774" lon="4.69535">
        <ele>258</ele>
        <time>2021-11-19T21:50:45Z</time>
      </trkpt>
      <trkpt lat="45.57733" lon="4.69547">
        <ele>258</ele>
        <time>2021-11-19T21:50:48Z</time>
      </trkpt>
      <trkpt lat="45.5773" lon="4.69558">
        <ele>258</ele>
        <time>2021-11-19T21:50:50Z</time>
      </trkpt>
      <trkpt lat="45.57729" lon="4.69587">
        <ele>257</ele>
        <time>2021-11-19T21:50:54Z</time>
      </trkpt>
      <trkpt lat="45.57726" lon="4.69595">
        <ele>256</ele>
        <time>2021-11-19T21:50:56Z</time>
      </trkpt>
      <trkpt lat="45.57715" lon="4.69595">
        <ele>256</ele>
        <time>2021-11-19T21:50:58Z</time>
      </trkpt>
      <trkpt lat="45.57708" lon="4.69589">
        <ele>257</ele>
        <time>2021-11-19T21:51:00Z</time>
      </trkpt>
      <trkpt lat="45.57698" lon="4.69566">
        <ele>258</ele>
        <time>2021-11-19T21:51:05Z</time>
      </trkpt>
      <trkpt lat="45.57678" lon="4.69568">
        <ele>258</ele>
        <time>2021-11-19T21:51:09Z</time>
      </trkpt>
      <trkpt lat="45.57673" lon="4.69581">
        <ele>257</ele>
        <time>2021-11-19T21:51:12Z</time>
      </trkpt>
      <trkpt lat="45.57672" lon="4.69647">
        <ele>256</ele>
        <time>2021-11-19T21:51:23Z</time>
      </trkpt>
      <trkpt lat="45.57668" lon="4.69692">
        <ele>256</ele>
        <time>2021-11-19T21:51:30Z</time>
      </trkpt>
      <trkpt lat="45.57665" lon="4.69698">
        <ele>256</ele>
        <time>2021-11-19T21:51:31Z</time>
      </trkpt>
      <trkpt lat="45.57662" lon="4.697">
        <ele>257</ele>
        <time>2021-11-19T21:51:32Z</time>
      </trkpt>
      <trkpt lat="45.57658" lon="4.69696">
        <ele>258</ele>
        <time>2021-11-19T21:51:33Z</time>
      </trkpt>
      <trkpt lat="45.57613" lon="4.69707">
        <ele>268</ele>
        <time>2021-11-19T21:51:44Z</time>
      </trkpt>
      <trkpt lat="45.57543" lon="4.69655">
        <ele>279</ele>
        <time>2021-11-19T21:52:02Z</time>
      </trkpt>
      <trkpt lat="45.57537" lon="4.69654">
        <ele>279</ele>
        <time>2021-11-19T21:52:04Z</time>
      </trkpt>
      <trkpt lat="45.57533" lon="4.69657">
        <ele>280</ele>
        <time>2021-11-19T21:52:05Z</time>
      </trkpt>
      <trkpt lat="45.57526" lon="4.69675">
        <ele>280</ele>
        <time>2021-11-19T21:52:08Z</time>
      </trkpt>
      <trkpt lat="45.57506" lon="4.69662">
        <ele>282</ele>
        <time>2021-11-19T21:52:13Z</time>
      </trkpt>
      <trkpt lat="45.57489" lon="4.69643">
        <ele>283</ele>
        <time>2021-11-19T21:52:18Z</time>
      </trkpt>
      <trkpt lat="45.57531" lon="4.69513">
        <ele>279</ele>
        <time>2021-11-19T21:52:42Z</time>
      </trkpt>
      <trkpt lat="45.57493" lon="4.69513">
        <ele>279</ele>
        <time>2021-11-19T21:52:51Z</time>
      </trkpt>
      <trkpt lat="45.57428" lon="4.69519">
        <ele>280</ele>
        <time>2021-11-19T21:53:06Z</time>
      </trkpt>
      <trkpt lat="45.57365" lon="4.69503">
        <ele>277</ele>
        <time>2021-11-19T21:53:21Z</time>
      </trkpt>
      <trkpt lat="45.57326" lon="4.69487">
        <ele>272</ele>
        <time>2021-11-19T21:53:30Z</time>
      </trkpt>
      <trkpt lat="45.57303" lon="4.69483">
        <ele>267</ele>
        <time>2021-11-19T21:53:36Z</time>
      </trkpt>
      <trkpt lat="45.57296" lon="4.69491">
        <ele>268</ele>
        <time>2021-11-19T21:53:38Z</time>
      </trkpt>
      <trkpt lat="45.5729" lon="4.69513">
        <ele>270</ele>
        <time>2021-11-19T21:53:42Z</time>
      </trkpt>
      <trkpt lat="45.5729" lon="4.69531">
        <ele>270</ele>
        <time>2021-11-19T21:53:44Z</time>
      </trkpt>
      <trkpt lat="45.57293" lon="4.69546">
        <ele>271</ele>
        <time>2021-11-19T21:53:47Z</time>
      </trkpt>
      <trkpt lat="45.57307" lon="4.6958">
        <ele>274</ele>
        <time>2021-11-19T21:53:53Z</time>
      </trkpt>
      <trkpt lat="45.57309" lon="4.69608">
        <ele>275</ele>
        <time>2021-11-19T21:53:58Z</time>
      </trkpt>
      <trkpt lat="45.573" lon="4.69636">
        <ele>274</ele>
        <time>2021-11-19T21:54:03Z</time>
      </trkpt>
      <trkpt lat="45.5729" lon="4.69652">
        <ele>272</ele>
        <time>2021-11-19T21:54:07Z</time>
      </trkpt>
      <trkpt lat="45.57263" lon="4.69673">
        <ele>267</ele>
        <time>2021-11-19T21:54:14Z</time>
      </trkpt>
      <trkpt lat="45.57256" lon="4.69686">
        <ele>265</ele>
        <time>2021-11-19T21:54:16Z</time>
      </trkpt>
      <trkpt lat="45.57198" lon="4.69874">
        <ele>245</ele>
        <time>2021-11-19T21:54:50Z</time>
      </trkpt>
      <trkpt lat="45.57179" lon="4.69903">
        <ele>240</ele>
        <time>2021-11-19T21:54:57Z</time>
      </trkpt>
      <trkpt lat="45.5712" lon="4.69955">
        <ele>233</ele>
        <time>2021-11-19T21:55:13Z</time>
      </trkpt>
      <trkpt lat="45.57078" lon="4.6995">
        <ele>218</ele>
        <time>2021-11-19T21:55:23Z</time>
      </trkpt>
      <trkpt lat="45.57067" lon="4.6996">
        <ele>217</ele>
        <time>2021-11-19T21:55:26Z</time>
      </trkpt>
      <trkpt lat="45.57062" lon="4.69982">
        <ele>220</ele>
        <time>2021-11-19T21:55:29Z</time>
      </trkpt>
      <trkpt lat="45.57064" lon="4.70026">
        <ele>230</ele>
        <time>2021-11-19T21:55:37Z</time>
      </trkpt>
      <trkpt lat="45.57069" lon="4.70057">
        <ele>237</ele>
        <time>2021-11-19T21:55:42Z</time>
      </trkpt>
      <trkpt lat="45.5708" lon="4.70089">
        <ele>246</ele>
        <time>2021-11-19T21:55:48Z</time>
      </trkpt>
      <trkpt lat="45.57073" lon="4.70092">
        <ele>244</ele>
        <time>2021-11-19T21:55:49Z</time>
      </trkpt>
      <trkpt lat="45.57067" lon="4.70087">
        <ele>242</ele>
        <time>2021-11-19T21:55:51Z</time>
      </trkpt>
      <trkpt lat="45.57054" lon="4.70089">
        <ele>239</ele>
        <time>2021-11-19T21:55:54Z</time>
      </trkpt>
      <trkpt lat="45.57022" lon="4.7008">
        <ele>228</ele>
        <time>2021-11-19T21:56:02Z</time>
      </trkpt>
      <trkpt lat="45.57012" lon="4.70082">
        <ele>226</ele>
        <time>2021-11-19T21:56:04Z</time>
      </trkpt>
      <trkpt lat="45.57001" lon="4.70089">
        <ele>225</ele>
        <time>2021-11-19T21:56:07Z</time>
      </trkpt>
      <trkpt lat="45.56988" lon="4.70103">
        <ele>225</ele>
        <time>2021-11-19T21:56:11Z</time>
      </trkpt>
      <trkpt lat="45.56973" lon="4.70103">
        <ele>222</ele>
        <time>2021-11-19T21:56:14Z</time>
      </trkpt>
      <trkpt lat="45.5693" lon="4.70091">
        <ele>211</ele>
        <time>2021-11-19T21:56:24Z</time>
      </trkpt>
      <trkpt lat="45.56922" lon="4.70095">
        <ele>210</ele>
        <time>2021-11-19T21:56:26Z</time>
      </trkpt>
      <trkpt lat="45.56906" lon="4.70117">
        <ele>211</ele>
        <time>2021-11-19T21:56:32Z</time>
      </trkpt>
      <trkpt lat="45.56877" lon="4.70169">
        <ele>211</ele>
        <time>2021-11-19T21:56:42Z</time>
      </trkpt>
      <trkpt lat="45.56865" lon="4.70212">
        <ele>212</ele>
        <time>2021-11-19T21:56:50Z</time>
      </trkpt>
      <trkpt lat="45.56847" lon="4.70255">
        <ele>211</ele>
        <time>2021-11-19T21:56:58Z</time>
      </trkpt>
      <trkpt lat="45.56825" lon="4.70278">
        <ele>210</ele>
        <time>2021-11-19T21:57:05Z</time>
      </trkpt>
      <trkpt lat="45.56802" lon="4.70297">
        <ele>208</ele>
        <time>2021-11-19T21:57:11Z</time>
      </trkpt>
      <trkpt lat="45.56784" lon="4.70308">
        <ele>204</ele>
        <time>2021-11-19T21:57:15Z</time>
      </trkpt>
      <trkpt lat="45.56769" lon="4.70324">
        <ele>201</ele>
        <time>2021-11-19T21:57:20Z</time>
      </trkpt>
      <trkpt lat="45.56757" lon="4.70389">
        <ele>202</ele>
        <time>2021-11-19T21:57:31Z</time>
      </trkpt>
      <trkpt lat="45.5674" lon="4.70407">
        <ele>199</ele>
        <time>2021-11-19T21:57:36Z</time>
      </trkpt>
      <trkpt lat="45.56717" lon="4.70419">
        <ele>195</ele>
        <time>2021-11-19T21:57:41Z</time>
      </trkpt>
      <trkpt lat="45.56709" lon="4.70411">
        <ele>194</ele>
        <time>2021-11-19T21:57:44Z</time>
      </trkpt>
      <trkpt lat="45.5668" lon="4.70433">
        <ele>187</ele>
        <time>2021-11-19T21:57:51Z</time>
      </trkpt>
      <trkpt lat="45.56663" lon="4.70522">
        <ele>182</ele>
        <time>2021-11-19T21:58:06Z</time>
      </trkpt>
      <trkpt lat="45.5657" lon="4.70513">
        <ele>181</ele>
        <time>2021-11-19T21:58:28Z</time>
      </trkpt>
      <trkpt lat="45.56527" lon="4.70496">
        <ele>182</ele>
        <time>2021-11-19T21:58:39Z</time>
      </trkpt>
      <trkpt lat="45.56517" lon="4.7061">
        <ele>187</ele>
        <time>2021-11-19T21:58:57Z</time>
      </trkpt>
      <trkpt lat="45.56531" lon="4.70676">
        <ele>191</ele>
        <time>2021-11-19T21:59:09Z</time>
      </trkpt>
      <trkpt lat="45.56531" lon="4.70689">
        <ele>192</ele>
        <time>2021-11-19T21:59:11Z</time>
      </trkpt>
      <trkpt lat="45.56513" lon="4.70729">
        <ele>198</ele>
        <time>2021-11-19T21:59:19Z</time>
      </trkpt>
      <trkpt lat="45.56513" lon="4.70742">
        <ele>199</ele>
        <time>2021-11-19T21:59:21Z</time>
      </trkpt>
      <trkpt lat="45.56523" lon="4.70763">
        <ele>200</ele>
        <time>2021-11-19T21:59:25Z</time>
      </trkpt>
      <trkpt lat="45.56547" lon="4.70801">
        <ele>200</ele>
        <time>2021-11-19T21:59:33Z</time>
      </trkpt>
      <trkpt lat="45.56565" lon="4.70841">
        <ele>200</ele>
        <time>2021-11-19T21:59:41Z</time>
      </trkpt>
      <trkpt lat="45.56577" lon="4.70938">
        <ele>203</ele>
        <time>2021-11-19T21:59:57Z</time>
      </trkpt>
      <trkpt lat="45.56571" lon="4.70961">
        <ele>206</ele>
        <time>2021-11-19T22:00:01Z</time>
      </trkpt>
      <trkpt lat="45.56554" lon="4.70983">
        <ele>211</ele>
        <time>2021-11-19T22:00:06Z</time>
      </trkpt>
      <trkpt lat="45.56525" lon="4.71007">
        <ele>219</ele>
        <time>2021-11-19T22:00:14Z</time>
      </trkpt>
      <trkpt lat="45.56463" lon="4.71033">
        <ele>231</ele>
        <time>2021-11-19T22:00:29Z</time>
      </trkpt>
      <trkpt lat="45.56447" lon="4.71049">
        <ele>232</ele>
        <time>2021-11-19T22:00:34Z</time>
      </trkpt>
      <trkpt lat="45.56472" lon="4.71099">
        <ele>226</ele>
        <time>2021-11-19T22:00:44Z</time>
      </trkpt>
      <trkpt lat="45.56481" lon="4.71102">
        <ele>226</ele>
        <time>2021-11-19T22:00:46Z</time>
      </trkpt>
      <trkpt lat="45.56527" lon="4.7109">
        <ele>219</ele>
        <time>2021-11-19T22:00:57Z</time>
      </trkpt>
      <trkpt lat="45.56541" lon="4.7109">
        <ele>218</ele>
        <time>2021-11-19T22:01:00Z</time>
      </trkpt>
      <trkpt lat="45.56559" lon="4.71108">
        <ele>218</ele>
        <time>2021-11-19T22:01:05Z</time>
      </trkpt>
      <trkpt lat="45.56576" lon="4.71171">
        <ele>221</ele>
        <time>2021-11-19T22:01:16Z</time>
      </trkpt>
      <trkpt lat="45.56581" lon="4.71182">
        <ele>221</ele>
        <time>2021-11-19T22:01:19Z</time>
      </trkpt>
      <trkpt lat="45.56632" lon="4.71249">
        <ele>218</ele>
        <time>2021-11-19T22:01:35Z</time>
      </trkpt>
      <trkpt lat="45.56654" lon="4.71282">
        <ele>218</ele>
        <time>2021-11-19T22:01:42Z</time>
      </trkpt>
      <trkpt lat="45.56658" lon="4.71304">
        <ele>219</ele>
        <time>2021-11-19T22:01:46Z</time>
      </trkpt>
      <trkpt lat="45.56652" lon="4.71329">
        <ele>223</ele>
        <time>2021-11-19T22:01:50Z</time>
      </trkpt>
      <trkpt lat="45.56663" lon="4.71334">
        <ele>222</ele>
        <time>2021-11-19T22:01:53Z</time>
      </trkpt>
      <trkpt lat="45.56677" lon="4.71335">
        <ele>220</ele>
        <time>2021-11-19T22:01:56Z</time>
      </trkpt>
      <trkpt lat="45.56738" lon="4.71381">
        <ele>219</ele>
        <time>2021-11-19T22:02:12Z</time>
      </trkpt>
      <trkpt lat="45.56758" lon="4.71411">
        <ele>222</ele>
        <time>2021-11-19T22:02:19Z</time>
      </trkpt>
      <trkpt lat="45.56819" lon="4.7145">
        <ele>217</ele>
        <time>2021-11-19T22:02:35Z</time>
      </trkpt>
      <trkpt lat="45.56837" lon="4.71481">
        <ele>218</ele>
        <time>2021-11-19T22:02:41Z</time>
      </trkpt>
      <trkpt lat="45.56843" lon="4.71503">
        <ele>220</ele>
        <time>2021-11-19T22:02:45Z</time>
      </trkpt>
      <trkpt lat="45.56868" lon="4.71533">
        <ele>219</ele>
        <time>2021-11-19T22:02:53Z</time>
      </trkpt>
      <trkpt lat="45.5691" lon="4.71595">
        <ele>220</ele>
        <time>2021-11-19T22:03:07Z</time>
      </trkpt>
      <trkpt lat="45.56946" lon="4.71642">
        <ele>218</ele>
        <time>2021-11-19T22:03:18Z</time>
      </trkpt>
      <trkpt lat="45.56968" lon="4.71677">
        <ele>217</ele>
        <time>2021-11-19T22:03:26Z</time>
      </trkpt>
      <trkpt lat="45.56978" lon="4.7171">
        <ele>218</ele>
        <time>2021-11-19T22:03:32Z</time>
      </trkpt>
      <trkpt lat="45.56976" lon="4.71742">
        <ele>223</ele>
        <time>2021-11-19T22:03:37Z</time>
      </trkpt>
      <trkpt lat="45.56968" lon="4.71761">
        <ele>227</ele>
        <time>2021-11-19T22:03:41Z</time>
      </trkpt>
      <trkpt lat="45.56978" lon="4.71773">
        <ele>224</ele>
        <time>2021-11-19T22:03:44Z</time>
      </trkpt>
      <trkpt lat="45.56988" lon="4.7178">
        <ele>220</ele>
        <time>2021-11-19T22:03:46Z</time>
      </trkpt>
      <trkpt lat="45.56993" lon="4.71775">
        <ele>219</ele>
        <time>2021-11-19T22:03:48Z</time>
      </trkpt>
      <trkpt lat="45.56999" lon="4.71724">
        <ele>213</ele>
        <time>2021-11-19T22:03:56Z</time>
      </trkpt>
      <trkpt lat="45.57004" lon="4.71725">
        <ele>211</ele>
        <time>2021-11-19T22:03:57Z</time>
      </trkpt>
      <trkpt lat="45.57012" lon="4.71729">
        <ele>209</ele>
        <time>2021-11-19T22:03:59Z</time>
      </trkpt>
      <trkpt lat="45.57023" lon="4.71749">
        <ele>208</ele>
        <time>2021-11-19T22:04:04Z</time>
      </trkpt>
      <trkpt lat="45.57026" lon="4.71793">
        <ele>208</ele>
        <time>2021-11-19T22:04:11Z</time>
      </trkpt>
      <trkpt lat="45.57028" lon="4.71795">
        <ele>208</ele>
        <time>2021-11-19T22:04:11Z</time>
      </trkpt>
      <trkpt lat="45.57033" lon="4.71794">
        <ele>206</ele>
        <time>2021-11-19T22:04:13Z</time>
      </trkpt>
      <trkpt lat="45.5704" lon="4.71779">
        <ele>203</ele>
        <time>2021-11-19T22:04:15Z</time>
      </trkpt>
      <trkpt lat="45.57051" lon="4.71728">
        <ele>195</ele>
        <time>2021-11-19T22:04:24Z</time>
      </trkpt>
      <trkpt lat="45.57051" lon="4.717">
        <ele>192</ele>
        <time>2021-11-19T22:04:29Z</time>
      </trkpt>
      <trkpt lat="45.57062" lon="4.71712">
        <ele>190</ele>
        <time>2021-11-19T22:04:32Z</time>
      </trkpt>
      <trkpt lat="45.5707" lon="4.71726">
        <ele>188</ele>
        <time>2021-11-19T22:04:35Z</time>
      </trkpt>
      <trkpt lat="45.5708" lon="4.71754">
        <ele>188</ele>
        <time>2021-11-19T22:04:40Z</time>
      </trkpt>
      <trkpt lat="45.57081" lon="4.71786">
        <ele>190</ele>
        <time>2021-11-19T22:04:45Z</time>
      </trkpt>
      <trkpt lat="45.57095" lon="4.71776">
        <ele>187</ele>
        <time>2021-11-19T22:04:49Z</time>
      </trkpt>
      <trkpt lat="45.57098" lon="4.71799">
        <ele>189</ele>
        <time>2021-11-19T22:04:53Z</time>
      </trkpt>
      <trkpt lat="45.57097" lon="4.71807">
        <ele>190</ele>
        <time>2021-11-19T22:04:54Z</time>
      </trkpt>
      <trkpt lat="45.57077" lon="4.71861">
        <ele>198</ele>
        <time>2021-11-19T22:05:04Z</time>
      </trkpt>
      <trkpt lat="45.57046" lon="4.71893">
        <ele>206</ele>
        <time>2021-11-19T22:05:13Z</time>
      </trkpt>
      <trkpt lat="45.57035" lon="4.71913">
        <ele>208</ele>
        <time>2021-11-19T22:05:17Z</time>
      </trkpt>
      <trkpt lat="45.5703" lon="4.71942">
        <ele>210</ele>
        <time>2021-11-19T22:05:22Z</time>
      </trkpt>
      <trkpt lat="45.57036" lon="4.71945">
        <ele>210</ele>
        <time>2021-11-19T22:05:24Z</time>
      </trkpt>
      <trkpt lat="45.57042" lon="4.71943">
        <ele>209</ele>
        <time>2021-11-19T22:05:25Z</time>
      </trkpt>
      <trkpt lat="45.57076" lon="4.71949">
        <ele>207</ele>
        <time>2021-11-19T22:05:33Z</time>
      </trkpt>
      <trkpt lat="45.57083" lon="4.71935">
        <ele>205</ele>
        <time>2021-11-19T22:05:36Z</time>
      </trkpt>
      <trkpt lat="45.5717" lon="4.71981">
        <ele>205</ele>
        <time>2021-11-19T22:05:58Z</time>
      </trkpt>
      <trkpt lat="45.57172" lon="4.72031">
        <ele>211</ele>
        <time>2021-11-19T22:06:06Z</time>
      </trkpt>
      <trkpt lat="45.57195" lon="4.72144">
        <ele>221</ele>
        <time>2021-11-19T22:06:25Z</time>
      </trkpt>
      <trkpt lat="45.57186" lon="4.72226">
        <ele>234</ele>
        <time>2021-11-19T22:06:39Z</time>
      </trkpt>
      <trkpt lat="45.57186" lon="4.72259">
        <ele>238</ele>
        <time>2021-11-19T22:06:44Z</time>
      </trkpt>
      <trkpt lat="45.57197" lon="4.72349">
        <ele>241</ele>
        <time>2021-11-19T22:06:59Z</time>
      </trkpt>
      <trkpt lat="45.57198" lon="4.72377">
        <ele>243</ele>
        <time>2021-11-19T22:07:03Z</time>
      </trkpt>
      <trkpt lat="45.57204" lon="4.72404">
        <ele>244</ele>
        <time>2021-11-19T22:07:08Z</time>
      </trkpt>
      <trkpt lat="45.57234" lon="4.72435">
        <ele>239</ele>
        <time>2021-11-19T22:07:17Z</time>
      </trkpt>
      <trkpt lat="45.5725" lon="4.72458">
        <ele>237</ele>
        <time>2021-11-19T22:07:22Z</time>
      </trkpt>
      <trkpt lat="45.57248" lon="4.72479">
        <ele>239</ele>
        <time>2021-11-19T22:07:25Z</time>
      </trkpt>
      <trkpt lat="45.57231" lon="4.72501">
        <ele>243</ele>
        <time>2021-11-19T22:07:31Z</time>
      </trkpt>
      <trkpt lat="45.57216" lon="4.725">
        <ele>246</ele>
        <time>2021-11-19T22:07:34Z</time>
      </trkpt>
      <trkpt lat="45.5718" lon="4.72465">
        <ele>252</ele>
        <time>2021-11-19T22:07:45Z</time>
      </trkpt>
      <trkpt lat="45.57163" lon="4.7244">
        <ele>255</ele>
        <time>2021-11-19T22:07:50Z</time>
      </trkpt>
      <trkpt lat="45.57147" lon="4.72434">
        <ele>258</ele>
        <time>2021-11-19T22:07:54Z</time>
      </trkpt>
      <trkpt lat="45.57135" lon="4.72444">
        <ele>261</ele>
        <time>2021-11-19T22:07:57Z</time>
      </trkpt>
      <trkpt lat="45.56924" lon="4.72719">
        <ele>273</ele>
        <time>2021-11-19T22:09:04Z</time>
      </trkpt>
      <trkpt lat="45.56923" lon="4.7275">
        <ele>272</ele>
        <time>2021-11-19T22:09:09Z</time>
      </trkpt>
      <trkpt lat="45.56933" lon="4.7275">
        <ele>272</ele>
        <time>2021-11-19T22:09:11Z</time>
      </trkpt>
      <trkpt lat="45.57008" lon="4.72722">
        <ele>268</ele>
        <time>2021-11-19T22:09:30Z</time>
      </trkpt>
      <trkpt lat="45.57063" lon="4.72719">
        <ele>269</ele>
        <time>2021-11-19T22:09:42Z</time>
      </trkpt>
      <trkpt lat="45.57078" lon="4.72708">
        <ele>267</ele>
        <time>2021-11-19T22:09:46Z</time>
      </trkpt>
      <trkpt lat="45.57122" lon="4.727">
        <ele>265</ele>
        <time>2021-11-19T22:09:57Z</time>
      </trkpt>
      <trkpt lat="45.57192" lon="4.72752">
        <ele>272</ele>
        <time>2021-11-19T22:10:15Z</time>
      </trkpt>
      <trkpt lat="45.57111" lon="4.72808">
        <ele>281</ele>
        <time>2021-11-19T22:10:36Z</time>
      </trkpt>
      <trkpt lat="45.57024" lon="4.72926">
        <ele>297</ele>
        <time>2021-11-19T22:11:04Z</time>
      </trkpt>
      <trkpt lat="45.5698" lon="4.72978">
        <ele>305</ele>
        <time>2021-11-19T22:11:17Z</time>
      </trkpt>
      <trkpt lat="45.56999" lon="4.73037">
        <ele>308</ele>
        <time>2021-11-19T22:11:28Z</time>
      </trkpt>
      <trkpt lat="45.57005" lon="4.73105">
        <ele>312</ele>
        <time>2021-11-19T22:11:39Z</time>
      </trkpt>
      <trkpt lat="45.57023" lon="4.73158">
        <ele>313</ele>
        <time>2021-11-19T22:11:49Z</time>
      </trkpt>
      <trkpt lat="45.57056" lon="4.73229">
        <ele>311</ele>
        <time>2021-11-19T22:12:03Z</time>
      </trkpt>
      <trkpt lat="45.57052" lon="4.73309">
        <ele>312</ele>
        <time>2021-11-19T22:12:16Z</time>
      </trkpt>
      <trkpt lat="45.57038" lon="4.73359">
        <ele>314</ele>
        <time>2021-11-19T22:12:25Z</time>
      </trkpt>
      <trkpt lat="45.57034" lon="4.73405">
        <ele>313</ele>
        <time>2021-11-19T22:12:32Z</time>
      </trkpt>
      <trkpt lat="45.57043" lon="4.73415">
        <ele>313</ele>
        <time>2021-11-19T22:12:35Z</time>
      </trkpt>
      <trkpt lat="45.57068" lon="4.7342">
        <ele>312</ele>
        <time>2021-11-19T22:12:41Z</time>
      </trkpt>
      <trkpt lat="45.57106" lon="4.73444">
        <ele>312</ele>
        <time>2021-11-19T22:12:51Z</time>
      </trkpt>
      <trkpt lat="45.57008" lon="4.73558">
        <ele>321</ele>
        <time>2021-11-19T22:13:20Z</time>
      </trkpt>
      <trkpt lat="45.56961" lon="4.73605">
        <ele>326</ele>
        <time>2021-11-19T22:13:34Z</time>
      </trkpt>
      <trkpt lat="45.56929" lon="4.73624">
        <ele>329</ele>
        <time>2021-11-19T22:13:42Z</time>
      </trkpt>
      <trkpt lat="45.56884" lon="4.73637">
        <ele>333</ele>
        <time>2021-11-19T22:13:52Z</time>
      </trkpt>
      <trkpt lat="45.56889" lon="4.73678">
        <ele>333</ele>
        <time>2021-11-19T22:13:59Z</time>
      </trkpt>
      <trkpt lat="45.56881" lon="4.73761">
        <ele>332</ele>
        <time>2021-11-19T22:14:13Z</time>
      </trkpt>
      <trkpt lat="45.56871" lon="4.73799">
        <ele>333</ele>
        <time>2021-11-19T22:14:19Z</time>
      </trkpt>
      <trkpt lat="45.56836" lon="4.73873">
        <ele>333</ele>
        <time>2021-11-19T22:14:34Z</time>
      </trkpt>
      <trkpt lat="45.56918" lon="4.73975">
        <ele>328</ele>
        <time>2021-11-19T22:14:59Z</time>
      </trkpt>
      <trkpt lat="45.56978" lon="4.74056">
        <ele>323</ele>
        <time>2021-11-19T22:15:19Z</time>
      </trkpt>
      <trkpt lat="45.56954" lon="4.7407">
        <ele>324</ele>
        <time>2021-11-19T22:15:25Z</time>
      </trkpt>
      <trkpt lat="45.56923" lon="4.74075">
        <ele>325</ele>
        <time>2021-11-19T22:15:32Z</time>
      </trkpt>
      <trkpt lat="45.56887" lon="4.7407">
        <ele>326</ele>
        <time>2021-11-19T22:15:41Z</time>
      </trkpt>
      <trkpt lat="45.5686" lon="4.74062">
        <ele>326</ele>
        <time>2021-11-19T22:15:47Z</time>
      </trkpt>
      <trkpt lat="45.56823" lon="4.74038">
        <ele>328</ele>
        <time>2021-11-19T22:15:56Z</time>
      </trkpt>
      <trkpt lat="45.56804" lon="4.74036">
        <ele>328</ele>
        <time>2021-11-19T22:16:01Z</time>
      </trkpt>
      <trkpt lat="45.56788" lon="4.7404">
        <ele>327</ele>
        <time>2021-11-19T22:16:05Z</time>
      </trkpt>
      <trkpt lat="45.56772" lon="4.7408">
        <ele>326</ele>
        <time>2021-11-19T22:16:12Z</time>
      </trkpt>
      <trkpt lat="45.56733" lon="4.74153">
        <ele>328</ele>
        <time>2021-11-19T22:16:27Z</time>
      </trkpt>
      <trkpt lat="45.56693" lon="4.74195">
        <ele>329</ele>
        <time>2021-11-19T22:16:39Z</time>
      </trkpt>
      <trkpt lat="45.56642" lon="4.74237">
        <ele>331</ele>
        <time>2021-11-19T22:16:53Z</time>
      </trkpt>
      <trkpt lat="45.56565" lon="4.74289">
        <ele>333</ele>
        <time>2021-11-19T22:17:12Z</time>
      </trkpt>
      <trkpt lat="45.56547" lon="4.74297">
        <ele>333</ele>
        <time>2021-11-19T22:17:17Z</time>
      </trkpt>
      <trkpt lat="45.56533" lon="4.74299">
        <ele>333</ele>
        <time>2021-11-19T22:17:20Z</time>
      </trkpt>
      <trkpt lat="45.56504" lon="4.7429">
        <ele>333</ele>
        <time>2021-11-19T22:17:27Z</time>
      </trkpt>
      <trkpt lat="45.5646" lon="4.74265">
        <ele>335</ele>
        <time>2021-11-19T22:17:38Z</time>
      </trkpt>
      <trkpt lat="45.56446" lon="4.7426">
        <ele>335</ele>
        <time>2021-11-19T22:17:42Z</time>
      </trkpt>
      <trkpt lat="45.56375" lon="4.74257">
        <ele>337</ele>
        <time>2021-11-19T22:17:58Z</time>
      </trkpt>
      <trkpt lat="45.56375" lon="4.74315">
        <ele>336</ele>
        <time>2021-11-19T22:18:08Z</time>
      </trkpt>
      <trkpt lat="45.56357" lon="4.74344">
        <ele>337</ele>
        <time>2021-11-19T22:18:14Z</time>
      </trkpt>
      <trkpt lat="45.56302" lon="4.74388">
        <ele>339</ele>
        <time>2021-11-19T22:18:29Z</time>
      </trkpt>
      <trkpt lat="45.56249" lon="4.74412">
        <ele>342</ele>
        <time>2021-11-19T22:18:42Z</time>
      </trkpt>
      <trkpt lat="45.5611" lon="4.74504">
        <ele>348</ele>
        <time>2021-11-19T22:19:17Z</time>
      </trkpt>
      <trkpt lat="45.56075" lon="4.74544">
        <ele>350</ele>
        <time>2021-11-19T22:19:28Z</time>
      </trkpt>
      <trkpt lat="45.56052" lon="4.74572">
        <ele>351</ele>
        <time>2021-11-19T22:19:35Z</time>
      </trkpt>
      <trkpt lat="45.56004" lon="4.74639">
        <ele>351</ele>
        <time>2021-11-19T22:19:51Z</time>
      </trkpt>
      <trkpt lat="45.55996" lon="4.74668">
        <ele>351</ele>
        <time>2021-11-19T22:19:56Z</time>
      </trkpt>
      <trkpt lat="45.55993" lon="4.74709">
        <ele>351</ele>
        <time>2021-11-19T22:20:02Z</time>
      </trkpt>
      <trkpt lat="45.55982" lon="4.74706">
        <ele>351</ele>
        <time>2021-11-19T22:20:05Z</time>
      </trkpt>
      <trkpt lat="45.55972" lon="4.74679">
        <ele>352</ele>
        <time>2021-11-19T22:20:10Z</time>
      </trkpt>
      <trkpt lat="45.55943" lon="4.74516">
        <ele>359</ele>
        <time>2021-11-19T22:20:38Z</time>
      </trkpt>
      <trkpt lat="45.55922" lon="4.7443">
        <ele>362</ele>
        <time>2021-11-19T22:20:52Z</time>
      </trkpt>
      <trkpt lat="45.55903" lon="4.74324">
        <ele>366</ele>
        <time>2021-11-19T22:21:10Z</time>
      </trkpt>
      <trkpt lat="45.55875" lon="4.74218">
        <ele>370</ele>
        <time>2021-11-19T22:21:29Z</time>
      </trkpt>
      <trkpt lat="45.55835" lon="4.74108">
        <ele>372</ele>
        <time>2021-11-19T22:21:49Z</time>
      </trkpt>
      <trkpt lat="45.5582" lon="4.74091">
        <ele>372</ele>
        <time>2021-11-19T22:21:54Z</time>
      </trkpt>
      <trkpt lat="45.55815" lon="4.74106">
        <ele>373</ele>
        <time>2021-11-19T22:21:56Z</time>
      </trkpt>
      <trkpt lat="45.55745" lon="4.74192">
        <ele>378</ele>
        <time>2021-11-19T22:22:18Z</time>
      </trkpt>
      <trkpt lat="45.55693" lon="4.74247">
        <ele>383</ele>
        <time>2021-11-19T22:22:33Z</time>
      </trkpt>
      <trkpt lat="45.55661" lon="4.74273">
        <ele>386</ele>
        <time>2021-11-19T22:22:42Z</time>
      </trkpt>
      <trkpt lat="45.5563" lon="4.74294">
        <ele>388</ele>
        <time>2021-11-19T22:22:50Z</time>
      </trkpt>
      <trkpt lat="45.55585" lon="4.74314">
        <ele>391</ele>
        <time>2021-11-19T22:23:01Z</time>
      </trkpt>
      <trkpt lat="45.55509" lon="4.74339">
        <ele>392</ele>
        <time>2021-11-19T22:23:19Z</time>
      </trkpt>
      <trkpt lat="45.55474" lon="4.74346">
        <ele>391</ele>
        <time>2021-11-19T22:23:27Z</time>
      </trkpt>
      <trkpt lat="45.55419" lon="4.74347">
        <ele>391</ele>
        <time>2021-11-19T22:23:40Z</time>
      </trkpt>
      <trkpt lat="45.55317" lon="4.74359">
        <ele>396</ele>
        <time>2021-11-19T22:24:04Z</time>
      </trkpt>
      <trkpt lat="45.55291" lon="4.74367">
        <ele>397</ele>
        <time>2021-11-19T22:24:10Z</time>
      </trkpt>
      <trkpt lat="45.55259" lon="4.74381">
        <ele>399</ele>
        <time>2021-11-19T22:24:18Z</time>
      </trkpt>
      <trkpt lat="45.55252" lon="4.74392">
        <ele>400</ele>
        <time>2021-11-19T22:24:20Z</time>
      </trkpt>
      <trkpt lat="45.5523" lon="4.74402">
        <ele>402</ele>
        <time>2021-11-19T22:24:26Z</time>
      </trkpt>
      <trkpt lat="45.55212" lon="4.74398">
        <ele>404</ele>
        <time>2021-11-19T22:24:30Z</time>
      </trkpt>
      <trkpt lat="45.55182" lon="4.74397">
        <ele>407</ele>
        <time>2021-11-19T22:24:37Z</time>
      </trkpt>
      <trkpt lat="45.55154" lon="4.74392">
        <ele>410</ele>
        <time>2021-11-19T22:24:44Z</time>
      </trkpt>
      <trkpt lat="45.55002" lon="4.7436">
        <ele>437</ele>
        <time>2021-11-19T22:25:19Z</time>
      </trkpt>
      <trkpt lat="45.54963" lon="4.74364">
        <ele>444</ele>
        <time>2021-11-19T22:25:29Z</time>
      </trkpt>
      <trkpt lat="45.54932" lon="4.74377">
        <ele>449</ele>
        <time>2021-11-19T22:25:36Z</time>
      </trkpt>
      <trkpt lat="45.54914" lon="4.74378">
        <ele>453</ele>
        <time>2021-11-19T22:25:40Z</time>
      </trkpt>
      <trkpt lat="45.54878" lon="4.74368">
        <ele>458</ele>
        <time>2021-11-19T22:25:49Z</time>
      </trkpt>
      <trkpt lat="45.54862" lon="4.7437">
        <ele>461</ele>
        <time>2021-11-19T22:25:53Z</time>
      </trkpt>
      <trkpt lat="45.54843" lon="4.74368">
        <ele>464</ele>
        <time>2021-11-19T22:25:57Z</time>
      </trkpt>
      <trkpt lat="45.54736" lon="4.74378">
        <ele>473</ele>
        <time>2021-11-19T22:26:22Z</time>
      </trkpt>
      <trkpt lat="45.54708" lon="4.74378">
        <ele>473</ele>
        <time>2021-11-19T22:26:29Z</time>
      </trkpt>
      <trkpt lat="45.54711" lon="4.74406">
        <ele>473</ele>
        <time>2021-11-19T22:26:33Z</time>
      </trkpt>
      <trkpt lat="45.54709" lon="4.74435">
        <ele>473</ele>
        <time>2021-11-19T22:26:38Z</time>
      </trkpt>
      <trkpt lat="45.54713" lon="4.74471">
        <ele>472</ele>
        <time>2021-11-19T22:26:44Z</time>
      </trkpt>
      <trkpt lat="45.54733" lon="4.74539">
        <ele>472</ele>
        <time>2021-11-19T22:26:56Z</time>
      </trkpt>
      <trkpt lat="45.54749" lon="4.74699">
        <ele>470</ele>
        <time>2021-11-19T22:27:22Z</time>
      </trkpt>
      <trkpt lat="45.54756" lon="4.74801">
        <ele>467</ele>
        <time>2021-11-19T22:27:39Z</time>
      </trkpt>
      <trkpt lat="45.54763" lon="4.74842">
        <ele>464</ele>
        <time>2021-11-19T22:27:46Z</time>
      </trkpt>
      <trkpt lat="45.54785" lon="4.74916">
        <ele>461</ele>
        <time>2021-11-19T22:27:59Z</time>
      </trkpt>
      <trkpt lat="45.54801" lon="4.74952">
        <ele>459</ele>
        <time>2021-11-19T22:28:06Z</time>
      </trkpt>
      <trkpt lat="45.54827" lon="4.7505">
        <ele>455</ele>
        <time>2021-11-19T22:28:23Z</time>
      </trkpt>
      <trkpt lat="45.54832" lon="4.7508">
        <ele>453</ele>
        <time>2021-11-19T22:28:28Z</time>
      </trkpt>
      <trkpt lat="45.54871" lon="4.75147">
        <ele>445</ele>
        <time>2021-11-19T22:28:43Z</time>
      </trkpt>
      <trkpt lat="45.54892" lon="4.75172">
        <ele>440</ele>
        <time>2021-11-19T22:28:49Z</time>
      </trkpt>
      <trkpt lat="45.54908" lon="4.75205">
        <ele>434</ele>
        <time>2021-11-19T22:28:56Z</time>
      </trkpt>
      <trkpt lat="45.54959" lon="4.75285">
        <ele>421</ele>
        <time>2021-11-19T22:29:13Z</time>
      </trkpt>
      <trkpt lat="45.54994" lon="4.75349">
        <ele>415</ele>
        <time>2021-11-19T22:29:27Z</time>
      </trkpt>
      <trkpt lat="45.55018" lon="4.75375">
        <ele>413</ele>
        <time>2021-11-19T22:29:34Z</time>
      </trkpt>
      <trkpt lat="45.55047" lon="4.75446">
        <ele>411</ele>
        <time>2021-11-19T22:29:47Z</time>
      </trkpt>
      <trkpt lat="45.55039" lon="4.7544">
        <ele>411</ele>
        <time>2021-11-19T22:29:49Z</time>
      </trkpt>
      <trkpt lat="45.54956" lon="4.75414">
        <ele>410</ele>
        <time>2021-11-19T22:30:09Z</time>
      </trkpt>
      <trkpt lat="45.54924" lon="4.75414">
        <ele>409</ele>
        <time>2021-11-19T22:30:17Z</time>
      </trkpt>
      <trkpt lat="45.54891" lon="4.75419">
        <ele>408</ele>
        <time>2021-11-19T22:30:24Z</time>
      </trkpt>
      <trkpt lat="45.54855" lon="4.75411">
        <ele>410</ele>
        <time>2021-11-19T22:30:33Z</time>
      </trkpt>
      <trkpt lat="45.54831" lon="4.75403">
        <ele>411</ele>
        <time>2021-11-19T22:30:39Z</time>
      </trkpt>
      <trkpt lat="45.54763" lon="4.7541">
        <ele>405</ele>
        <time>2021-11-19T22:30:54Z</time>
      </trkpt>
      <trkpt lat="45.54732" lon="4.754">
        <ele>402</ele>
        <time>2021-11-19T22:31:02Z</time>
      </trkpt>
      <trkpt lat="45.54666" lon="4.7536">
        <ele>396</ele>
        <time>2021-11-19T22:31:19Z</time>
      </trkpt>
      <trkpt lat="45.54593" lon="4.7525">
        <ele>397</ele>
        <time>2021-11-19T22:31:43Z</time>
      </trkpt>
      <trkpt lat="45.54563" lon="4.75243">
        <ele>394</ele>
        <time>2021-11-19T22:31:51Z</time>
      </trkpt>
      <trkpt lat="45.54522" lon="4.75243">
        <ele>390</ele>
        <time>2021-11-19T22:32:00Z</time>
      </trkpt>
      <trkpt lat="45.54492" lon="4.75239">
        <ele>387</ele>
        <time>2021-11-19T22:32:07Z</time>
      </trkpt>
      <trkpt lat="45.54463" lon="4.75227">
        <ele>383</ele>
        <time>2021-11-19T22:32:14Z</time>
      </trkpt>
      <trkpt lat="45.54414" lon="4.75196">
        <ele>377</ele>
        <time>2021-11-19T22:32:27Z</time>
      </trkpt>
      <trkpt lat="45.54391" lon="4.75154">
        <ele>379</ele>
        <time>2021-11-19T22:32:35Z</time>
      </trkpt>
      <trkpt lat="45.54383" lon="4.75129">
        <ele>380</ele>
        <time>2021-11-19T22:32:40Z</time>
      </trkpt>
      <trkpt lat="45.54379" lon="4.75091">
        <ele>383</ele>
        <time>2021-11-19T22:32:46Z</time>
      </trkpt>
      <trkpt lat="45.54371" lon="4.7509">
        <ele>382</ele>
        <time>2021-11-19T22:32:48Z</time>
      </trkpt>
      <trkpt lat="45.54355" lon="4.75108">
        <ele>379</ele>
        <time>2021-11-19T22:32:53Z</time>
      </trkpt>
      <trkpt lat="45.54335" lon="4.75155">
        <ele>372</ele>
        <time>2021-11-19T22:33:02Z</time>
      </trkpt>
      <trkpt lat="45.54327" lon="4.75168">
        <ele>372</ele>
        <time>2021-11-19T22:33:05Z</time>
      </trkpt>
      <trkpt lat="45.54319" lon="4.75169">
        <ele>372</ele>
        <time>2021-11-19T22:33:07Z</time>
      </trkpt>
      <trkpt lat="45.54304" lon="4.75145">
        <ele>375</ele>
        <time>2021-11-19T22:33:12Z</time>
      </trkpt>
      <trkpt lat="45.54292" lon="4.75145">
        <ele>376</ele>
        <time>2021-11-19T22:33:15Z</time>
      </trkpt>
      <trkpt lat="45.54282" lon="4.75174">
        <ele>377</ele>
        <time>2021-11-19T22:33:20Z</time>
      </trkpt>
      <trkpt lat="45.54275" lon="4.75183">
        <ele>378</ele>
        <time>2021-11-19T22:33:22Z</time>
      </trkpt>
      <trkpt lat="45.54275" lon="4.75198">
        <ele>378</ele>
        <time>2021-11-19T22:33:25Z</time>
      </trkpt>
      <trkpt lat="45.54282" lon="4.75211">
        <ele>377</ele>
        <time>2021-11-19T22:33:27Z</time>
      </trkpt>
      <trkpt lat="45.54282" lon="4.75231">
        <ele>377</ele>
        <time>2021-11-19T22:33:30Z</time>
      </trkpt>
      <trkpt lat="45.54286" lon="4.75234">
        <ele>376</ele>
        <time>2021-11-19T22:33:32Z</time>
      </trkpt>
      <trkpt lat="45.54287" lon="4.75303">
        <ele>381</ele>
        <time>2021-11-19T22:33:43Z</time>
      </trkpt>
      <trkpt lat="45.54293" lon="4.75335">
        <ele>382</ele>
        <time>2021-11-19T22:33:48Z</time>
      </trkpt>
      <trkpt lat="45.54305" lon="4.7537">
        <ele>384</ele>
        <time>2021-11-19T22:33:55Z</time>
      </trkpt>
      <trkpt lat="45.54338" lon="4.75448">
        <ele>384</ele>
        <time>2021-11-19T22:34:10Z</time>
      </trkpt>
      <trkpt lat="45.54359" lon="4.75481">
        <ele>384</ele>
        <time>2021-11-19T22:34:17Z</time>
      </trkpt>
      <trkpt lat="45.54366" lon="4.75518">
        <ele>387</ele>
        <time>2021-11-19T22:34:23Z</time>
      </trkpt>
      <trkpt lat="45.54361" lon="4.75572">
        <ele>394</ele>
        <time>2021-11-19T22:34:32Z</time>
      </trkpt>
      <trkpt lat="45.54352" lon="4.75598">
        <ele>399</ele>
        <time>2021-11-19T22:34:37Z</time>
      </trkpt>
      <trkpt lat="45.54349" lon="4.7563">
        <ele>405</ele>
        <time>2021-11-19T22:34:42Z</time>
      </trkpt>
      <trkpt lat="45.54391" lon="4.75669">
        <ele>400</ele>
        <time>2021-11-19T22:34:54Z</time>
      </trkpt>
      <trkpt lat="45.54405" lon="4.75697">
        <ele>400</ele>
        <time>2021-11-19T22:34:59Z</time>
      </trkpt>
      <trkpt lat="45.54414" lon="4.75725">
        <ele>401</ele>
        <time>2021-11-19T22:35:04Z</time>
      </trkpt>
      <trkpt lat="45.54424" lon="4.75778">
        <ele>402</ele>
        <time>2021-11-19T22:35:13Z</time>
      </trkpt>
      <trkpt lat="45.54422" lon="4.75804">
        <ele>404</ele>
        <time>2021-11-19T22:35:18Z</time>
      </trkpt>
      <trkpt lat="45.54415" lon="4.75812">
        <ele>406</ele>
        <time>2021-11-19T22:35:20Z</time>
      </trkpt>
      <trkpt lat="45.54406" lon="4.75813">
        <ele>408</ele>
        <time>2021-11-19T22:35:22Z</time>
      </trkpt>
      <trkpt lat="45.54382" lon="4.75841">
        <ele>414</ele>
        <time>2021-11-19T22:35:29Z</time>
      </trkpt>
      <trkpt lat="45.54348" lon="4.75899">
        <ele>422</ele>
        <time>2021-11-19T22:35:41Z</time>
      </trkpt>
      <trkpt lat="45.54345" lon="4.75911">
        <ele>422</ele>
        <time>2021-11-19T22:35:44Z</time>
      </trkpt>
      <trkpt lat="45.54353" lon="4.75929">
        <ele>421</ele>
        <time>2021-11-19T22:35:47Z</time>
      </trkpt>
      <trkpt lat="45.5437" lon="4.7595">
        <ele>419</ele>
        <time>2021-11-19T22:35:52Z</time>
      </trkpt>
      <trkpt lat="45.54397" lon="4.75975">
        <ele>414</ele>
        <time>2021-11-19T22:36:00Z</time>
      </trkpt>
      <trkpt lat="45.54419" lon="4.76017">
        <ele>412</ele>
        <time>2021-11-19T22:36:08Z</time>
      </trkpt>
      <trkpt lat="45.54424" lon="4.76077">
        <ele>414</ele>
        <time>2021-11-19T22:36:18Z</time>
      </trkpt>
      <trkpt lat="45.54437" lon="4.76155">
        <ele>415</ele>
        <time>2021-11-19T22:36:31Z</time>
      </trkpt>
      <trkpt lat="45.54433" lon="4.7618">
        <ele>415</ele>
        <time>2021-11-19T22:36:36Z</time>
      </trkpt>
      <trkpt lat="45.54402" lon="4.7623">
        <ele>418</ele>
        <time>2021-11-19T22:36:46Z</time>
      </trkpt>
      <trkpt lat="45.54382" lon="4.76279">
        <ele>420</ele>
        <time>2021-11-19T22:36:56Z</time>
      </trkpt>
      <trkpt lat="45.54382" lon="4.76306">
        <ele>420</ele>
        <time>2021-11-19T22:37:00Z</time>
      </trkpt>
      <trkpt lat="45.54398" lon="4.76363">
        <ele>418</ele>
        <time>2021-11-19T22:37:10Z</time>
      </trkpt>
      <trkpt lat="45.544" lon="4.76393">
        <ele>419</ele>
        <time>2021-11-19T22:37:15Z</time>
      </trkpt>
      <trkpt lat="45.54396" lon="4.76463">
        <ele>419</ele>
        <time>2021-11-19T22:37:27Z</time>
      </trkpt>
      <trkpt lat="45.5439" lon="4.76516">
        <ele>418</ele>
        <time>2021-11-19T22:37:35Z</time>
      </trkpt>
      <trkpt lat="45.54382" lon="4.76537">
        <ele>417</ele>
        <time>2021-11-19T22:37:39Z</time>
      </trkpt>
      <trkpt lat="45.54343" lon="4.766">
        <ele>419</ele>
        <time>2021-11-19T22:37:53Z</time>
      </trkpt>
      <trkpt lat="45.5433" lon="4.76542">
        <ele>423</ele>
        <time>2021-11-19T22:38:03Z</time>
      </trkpt>
      <trkpt lat="45.54245" lon="4.76283">
        <ele>432</ele>
        <time>2021-11-19T22:38:50Z</time>
      </trkpt>
      <trkpt lat="45.5426" lon="4.7625">
        <ele>434</ele>
        <time>2021-11-19T22:38:56Z</time>
      </trkpt>
      <trkpt lat="45.54267" lon="4.76223">
        <ele>435</ele>
        <time>2021-11-19T22:39:01Z</time>
      </trkpt>
      <trkpt lat="45.54276" lon="4.76145">
        <ele>441</ele>
        <time>2021-11-19T22:39:14Z</time>
      </trkpt>
      <trkpt lat="45.54265" lon="4.76127">
        <ele>443</ele>
        <time>2021-11-19T22:39:18Z</time>
      </trkpt>
      <trkpt lat="45.54247" lon="4.76078">
        <ele>448</ele>
        <time>2021-11-19T22:39:27Z</time>
      </trkpt>
      <trkpt lat="45.54233" lon="4.76049">
        <ele>450</ele>
        <time>2021-11-19T22:39:33Z</time>
      </trkpt>
      <trkpt lat="45.5422" lon="4.76029">
        <ele>452</ele>
        <time>2021-11-19T22:39:37Z</time>
      </trkpt>
      <trkpt lat="45.54192" lon="4.76024">
        <ele>454</ele>
        <time>2021-11-19T22:39:44Z</time>
      </trkpt>
      <trkpt lat="45.54176" lon="4.76007">
        <ele>457</ele>
        <time>2021-11-19T22:39:48Z</time>
      </trkpt>
      <trkpt lat="45.54154" lon="4.75992">
        <ele>459</ele>
        <time>2021-11-19T22:39:54Z</time>
      </trkpt>
      <trkpt lat="45.54134" lon="4.75963">
        <ele>462</ele>
        <time>2021-11-19T22:40:01Z</time>
      </trkpt>
      <trkpt lat="45.5411" lon="4.75935">
        <ele>465</ele>
        <time>2021-11-19T22:40:08Z</time>
      </trkpt>
      <trkpt lat="45.54094" lon="4.75903">
        <ele>467</ele>
        <time>2021-11-19T22:40:14Z</time>
      </trkpt>
      <trkpt lat="45.54064" lon="4.7587">
        <ele>465</ele>
        <time>2021-11-19T22:40:23Z</time>
      </trkpt>
      <trkpt lat="45.54009" lon="4.75753">
        <ele>460</ele>
        <time>2021-11-19T22:40:46Z</time>
      </trkpt>
      <trkpt lat="45.54003" lon="4.75749">
        <ele>460</ele>
        <time>2021-11-19T22:40:48Z</time>
      </trkpt>
      <trkpt lat="45.53996" lon="4.75739">
        <ele>460</ele>
        <time>2021-11-19T22:40:50Z</time>
      </trkpt>
      <trkpt lat="45.53971" lon="4.7569">
        <ele>459</ele>
        <time>2021-11-19T22:41:00Z</time>
      </trkpt>
      <trkpt lat="45.53916" lon="4.7562">
        <ele>460</ele>
        <time>2021-11-19T22:41:17Z</time>
      </trkpt>
      <trkpt lat="45.53886" lon="4.7559">
        <ele>461</ele>
        <time>2021-11-19T22:41:26Z</time>
      </trkpt>
      <trkpt lat="45.53856" lon="4.75566">
        <ele>462</ele>
        <time>2021-11-19T22:41:34Z</time>
      </trkpt>
      <trkpt lat="45.53827" lon="4.75548">
        <ele>463</ele>
        <time>2021-11-19T22:41:41Z</time>
      </trkpt>
      <trkpt lat="45.53813" lon="4.75542">
        <ele>464</ele>
        <time>2021-11-19T22:41:45Z</time>
      </trkpt>
      <trkpt lat="45.53767" lon="4.75549">
        <ele>465</ele>
        <time>2021-11-19T22:41:55Z</time>
      </trkpt>
      <trkpt lat="45.53665" lon="4.75577">
        <ele>471</ele>
        <time>2021-11-19T22:42:20Z</time>
      </trkpt>
      <trkpt lat="45.53658" lon="4.75577">
        <ele>471</ele>
        <time>2021-11-19T22:42:21Z</time>
      </trkpt>
      <trkpt lat="45.53623" lon="4.75541">
        <ele>473</ele>
        <time>2021-11-19T22:42:31Z</time>
      </trkpt>
      <trkpt lat="45.536" lon="4.75508">
        <ele>476</ele>
        <time>2021-11-19T22:42:39Z</time>
      </trkpt>
      <trkpt lat="45.53577" lon="4.75465">
        <ele>478</ele>
        <time>2021-11-19T22:42:48Z</time>
      </trkpt>
      <trkpt lat="45.53554" lon="4.7543">
        <ele>481</ele>
        <time>2021-11-19T22:42:56Z</time>
      </trkpt>
      <trkpt lat="45.53508" lon="4.75406">
        <ele>487</ele>
        <time>2021-11-19T22:43:07Z</time>
      </trkpt>
      <trkpt lat="45.53461" lon="4.75378">
        <ele>487</ele>
        <time>2021-11-19T22:43:19Z</time>
      </trkpt>
      <trkpt lat="45.53417" lon="4.75346">
        <ele>490</ele>
        <time>2021-11-19T22:43:31Z</time>
      </trkpt>
      <trkpt lat="45.5338" lon="4.75306">
        <ele>492</ele>
        <time>2021-11-19T22:43:41Z</time>
      </trkpt>
      <trkpt lat="45.53338" lon="4.75248">
        <ele>499</ele>
        <time>2021-11-19T22:43:55Z</time>
      </trkpt>
      <trkpt lat="45.53317" lon="4.75226">
        <ele>502</ele>
        <time>2021-11-19T22:44:01Z</time>
      </trkpt>
      <trkpt lat="45.53264" lon="4.7518">
        <ele>511</ele>
        <time>2021-11-19T22:44:16Z</time>
      </trkpt>
      <trkpt lat="45.53247" lon="4.75116">
        <ele>517</ele>
        <time>2021-11-19T22:44:27Z</time>
      </trkpt>
      <trkpt lat="45.53239" lon="4.75095">
        <ele>519</ele>
        <time>2021-11-19T22:44:31Z</time>
      </trkpt>
      <trkpt lat="45.53232" lon="4.75089">
        <ele>520</ele>
        <time>2021-11-19T22:44:33Z</time>
      </trkpt>
      <trkpt lat="45.53167" lon="4.75062">
        <ele>528</ele>
        <time>2021-11-19T22:44:48Z</time>
      </trkpt>
      <trkpt lat="45.53133" lon="4.75035">
        <ele>532</ele>
        <time>2021-11-19T22:44:58Z</time>
      </trkpt>
      <trkpt lat="45.53121" lon="4.7502">
        <ele>534</ele>
        <time>2021-11-19T22:45:01Z</time>
      </trkpt>
      <trkpt lat="45.53103" lon="4.75011">
        <ele>536</ele>
        <time>2021-11-19T22:45:06Z</time>
      </trkpt>
      <trkpt lat="45.53082" lon="4.75005">
        <ele>539</ele>
        <time>2021-11-19T22:45:11Z</time>
      </trkpt>
      <trkpt lat="45.53023" lon="4.75005">
        <ele>545</ele>
        <time>2021-11-19T22:45:24Z</time>
      </trkpt>
      <trkpt lat="45.52961" lon="4.74965">
        <ele>551</ele>
        <time>2021-11-19T22:45:40Z</time>
      </trkpt>
      <trkpt lat="45.52899" lon="4.74933">
        <ele>555</ele>
        <time>2021-11-19T22:45:56Z</time>
      </trkpt>
      <trkpt lat="45.52872" lon="4.74916">
        <ele>555</ele>
        <time>2021-11-19T22:46:03Z</time>
      </trkpt>
      <trkpt lat="45.52858" lon="4.749">
        <ele>555</ele>
        <time>2021-11-19T22:46:07Z</time>
      </trkpt>
      <trkpt lat="45.52845" lon="4.74878">
        <ele>555</ele>
        <time>2021-11-19T22:46:12Z</time>
      </trkpt>
      <trkpt lat="45.52824" lon="4.74821">
        <ele>554</ele>
        <time>2021-11-19T22:46:22Z</time>
      </trkpt>
      <trkpt lat="45.52808" lon="4.748">
        <ele>553</ele>
        <time>2021-11-19T22:46:27Z</time>
      </trkpt>
      <trkpt lat="45.52795" lon="4.74763">
        <ele>554</ele>
        <time>2021-11-19T22:46:34Z</time>
      </trkpt>
      <trkpt lat="45.52775" lon="4.74742">
        <ele>554</ele>
        <time>2021-11-19T22:46:40Z</time>
      </trkpt>
      <trkpt lat="45.52742" lon="4.74683">
        <ele>557</ele>
        <time>2021-11-19T22:46:52Z</time>
      </trkpt>
      <trkpt lat="45.52726" lon="4.74666">
        <ele>558</ele>
        <time>2021-11-19T22:46:57Z</time>
      </trkpt>
      <trkpt lat="45.52704" lon="4.7465">
        <ele>557</ele>
        <time>2021-11-19T22:47:02Z</time>
      </trkpt>
      <trkpt lat="45.52694" lon="4.74632">
        <ele>557</ele>
        <time>2021-11-19T22:47:06Z</time>
      </trkpt>
      <trkpt lat="45.52681" lon="4.74615">
        <ele>556</ele>
        <time>2021-11-19T22:47:10Z</time>
      </trkpt>
      <trkpt lat="45.52624" lon="4.74587">
        <ele>551</ele>
        <time>2021-11-19T22:47:24Z</time>
      </trkpt>
      <trkpt lat="45.52612" lon="4.74578">
        <ele>550</ele>
        <time>2021-11-19T22:47:28Z</time>
      </trkpt>
      <trkpt lat="45.52584" lon="4.74569">
        <ele>547</ele>
        <time>2021-11-19T22:47:34Z</time>
      </trkpt>
      <trkpt lat="45.52549" lon="4.74545">
        <ele>543</ele>
        <time>2021-11-19T22:47:43Z</time>
      </trkpt>
      <trkpt lat="45.52529" lon="4.74536">
        <ele>541</ele>
        <time>2021-11-19T22:47:48Z</time>
      </trkpt>
      <trkpt lat="45.52517" lon="4.74536">
        <ele>540</ele>
        <time>2021-11-19T22:47:51Z</time>
      </trkpt>
      <trkpt lat="45.525" lon="4.74549">
        <ele>538</ele>
        <time>2021-11-19T22:47:56Z</time>
      </trkpt>
      <trkpt lat="45.52466" lon="4.74562">
        <ele>532</ele>
        <time>2021-11-19T22:48:04Z</time>
      </trkpt>
      <trkpt lat="45.52442" lon="4.74567">
        <ele>529</ele>
        <time>2021-11-19T22:48:09Z</time>
      </trkpt>
      <trkpt lat="45.5241" lon="4.74567">
        <ele>524</ele>
        <time>2021-11-19T22:48:17Z</time>
      </trkpt>
      <trkpt lat="45.52343" lon="4.74553">
        <ele>516</ele>
        <time>2021-11-19T22:48:33Z</time>
      </trkpt>
      <trkpt lat="45.52317" lon="4.74543">
        <ele>513</ele>
        <time>2021-11-19T22:48:39Z</time>
      </trkpt>
      <trkpt lat="45.52293" lon="4.74524">
        <ele>509</ele>
        <time>2021-11-19T22:48:45Z</time>
      </trkpt>
      <trkpt lat="45.52253" lon="4.7448">
        <ele>503</ele>
        <time>2021-11-19T22:48:57Z</time>
      </trkpt>
      <trkpt lat="45.52231" lon="4.74349">
        <ele>500</ele>
        <time>2021-11-19T22:49:19Z</time>
      </trkpt>
      <trkpt lat="45.52164" lon="4.74348">
        <ele>499</ele>
        <time>2021-11-19T22:49:35Z</time>
      </trkpt>
      <trkpt lat="45.52046" lon="4.74331">
        <ele>495</ele>
        <time>2021-11-19T22:50:03Z</time>
      </trkpt>
      <trkpt lat="45.51984" lon="4.74327">
        <ele>493</ele>
        <time>2021-11-19T22:50:17Z</time>
      </trkpt>
      <trkpt lat="45.51917" lon="4.74348">
        <ele>488</ele>
        <time>2021-11-19T22:50:33Z</time>
      </trkpt>
      <trkpt lat="45.5188" lon="4.74337">
        <ele>492</ele>
        <time>2021-11-19T22:50:42Z</time>
      </trkpt>
      <trkpt lat="45.51863" lon="4.74342">
        <ele>491</ele>
        <time>2021-11-19T22:50:46Z</time>
      </trkpt>
      <trkpt lat="45.51851" lon="4.7436">
        <ele>488</ele>
        <time>2021-11-19T22:50:50Z</time>
      </trkpt>
      <trkpt lat="45.51831" lon="4.7441">
        <ele>479</ele>
        <time>2021-11-19T22:51:00Z</time>
      </trkpt>
      <trkpt lat="45.51817" lon="4.74427">
        <ele>476</ele>
        <time>2021-11-19T22:51:04Z</time>
      </trkpt>
      <trkpt lat="45.51803" lon="4.74432">
        <ele>477</ele>
        <time>2021-11-19T22:51:07Z</time>
      </trkpt>
      <trkpt lat="45.5176" lon="4.74432">
        <ele>481</ele>
        <time>2021-11-19T22:51:17Z</time>
      </trkpt>
      <trkpt lat="45.51752" lon="4.74436">
        <ele>481</ele>
        <time>2021-11-19T22:51:19Z</time>
      </trkpt>
      <trkpt lat="45.51735" lon="4.74455">
        <ele>479</ele>
        <time>2021-11-19T22:51:24Z</time>
      </trkpt>
      <trkpt lat="45.51711" lon="4.74503">
        <ele>472</ele>
        <time>2021-11-19T22:51:34Z</time>
      </trkpt>
      <trkpt lat="45.51694" lon="4.7452">
        <ele>471</ele>
        <time>2021-11-19T22:51:39Z</time>
      </trkpt>
      <trkpt lat="45.51688" lon="4.74537">
        <ele>469</ele>
        <time>2021-11-19T22:51:42Z</time>
      </trkpt>
      <trkpt lat="45.51684" lon="4.74541">
        <ele>469</ele>
        <time>2021-11-19T22:51:43Z</time>
      </trkpt>
      <trkpt lat="45.51679" lon="4.7462">
        <ele>458</ele>
        <time>2021-11-19T22:51:56Z</time>
      </trkpt>
      <trkpt lat="45.51679" lon="4.74657">
        <ele>453</ele>
        <time>2021-11-19T22:52:02Z</time>
      </trkpt>
      <trkpt lat="45.51667" lon="4.74758">
        <ele>444</ele>
        <time>2021-11-19T22:52:19Z</time>
      </trkpt>
      <trkpt lat="45.51644" lon="4.74845">
        <ele>436</ele>
        <time>2021-11-19T22:52:34Z</time>
      </trkpt>
      <trkpt lat="45.51636" lon="4.74862">
        <ele>435</ele>
        <time>2021-11-19T22:52:37Z</time>
      </trkpt>
      <trkpt lat="45.51586" lon="4.74902">
        <ele>433</ele>
        <time>2021-11-19T22:52:51Z</time>
      </trkpt>
      <trkpt lat="45.51532" lon="4.74968">
        <ele>427</ele>
        <time>2021-11-19T22:53:07Z</time>
      </trkpt>
      <trkpt lat="45.51436" lon="4.75052">
        <ele>420</ele>
        <time>2021-11-19T22:53:34Z</time>
      </trkpt>
      <trkpt lat="45.51321" lon="4.75184">
        <ele>408</ele>
        <time>2021-11-19T22:54:08Z</time>
      </trkpt>
      <trkpt lat="45.51289" lon="4.75224">
        <ele>402</ele>
        <time>2021-11-19T22:54:18Z</time>
      </trkpt>
      <trkpt lat="45.51281" lon="4.7523">
        <ele>401</ele>
        <time>2021-11-19T22:54:20Z</time>
      </trkpt>
      <trkpt lat="45.51261" lon="4.75239">
        <ele>401</ele>
        <time>2021-11-19T22:54:25Z</time>
      </trkpt>
      <trkpt lat="45.51252" lon="4.75248">
        <ele>400</ele>
        <time>2021-11-19T22:54:28Z</time>
      </trkpt>
      <trkpt lat="45.51256" lon="4.75257">
        <ele>399</ele>
        <time>2021-11-19T22:54:29Z</time>
      </trkpt>
      <trkpt lat="45.51279" lon="4.75285">
        <ele>395</ele>
        <time>2021-11-19T22:54:36Z</time>
      </trkpt>
      <trkpt lat="45.51289" lon="4.75292">
        <ele>394</ele>
        <time>2021-11-19T22:54:39Z</time>
      </trkpt>
      <trkpt lat="45.51309" lon="4.75303">
        <ele>393</ele>
        <time>2021-11-19T22:54:44Z</time>
      </trkpt>
      <trkpt lat="45.51346" lon="4.75308">
        <ele>392</ele>
        <time>2021-11-19T22:54:53Z</time>
      </trkpt>
      <trkpt lat="45.51416" lon="4.75325">
        <ele>390</ele>
        <time>2021-11-19T22:55:09Z</time>
      </trkpt>
      <trkpt lat="45.51437" lon="4.75359">
        <ele>386</ele>
        <time>2021-11-19T22:55:17Z</time>
      </trkpt>
      <trkpt lat="45.51448" lon="4.75365">
        <ele>385</ele>
        <time>2021-11-19T22:55:19Z</time>
      </trkpt>
      <trkpt lat="45.51494" lon="4.75371">
        <ele>386</ele>
        <time>2021-11-19T22:55:30Z</time>
      </trkpt>
      <trkpt lat="45.51521" lon="4.75379">
        <ele>385</ele>
        <time>2021-11-19T22:55:37Z</time>
      </trkpt>
      <trkpt lat="45.5156" lon="4.7538">
        <ele>385</ele>
        <time>2021-11-19T22:55:46Z</time>
      </trkpt>
      <trkpt lat="45.51568" lon="4.75385">
        <ele>385</ele>
        <time>2021-11-19T22:55:48Z</time>
      </trkpt>
      <trkpt lat="45.51573" lon="4.75392">
        <ele>384</ele>
        <time>2021-11-19T22:55:49Z</time>
      </trkpt>
      <trkpt lat="45.51574" lon="4.75402">
        <ele>384</ele>
        <time>2021-11-19T22:55:51Z</time>
      </trkpt>
      <trkpt lat="45.5157" lon="4.75411">
        <ele>384</ele>
        <time>2021-11-19T22:55:53Z</time>
      </trkpt>
      <trkpt lat="45.515" lon="4.75469">
        <ele>388</ele>
        <time>2021-11-19T22:56:12Z</time>
      </trkpt>
      <trkpt lat="45.51475" lon="4.75486">
        <ele>388</ele>
        <time>2021-11-19T22:56:18Z</time>
      </trkpt>
      <trkpt lat="45.51429" lon="4.75535">
        <ele>391</ele>
        <time>2021-11-19T22:56:32Z</time>
      </trkpt>
      <trkpt lat="45.51415" lon="4.75545">
        <ele>392</ele>
        <time>2021-11-19T22:56:35Z</time>
      </trkpt>
      <trkpt lat="45.51349" lon="4.75572">
        <ele>393</ele>
        <time>2021-11-19T22:56:51Z</time>
      </trkpt>
      <trkpt lat="45.51329" lon="4.75584">
        <ele>394</ele>
        <time>2021-11-19T22:56:56Z</time>
      </trkpt>
      <trkpt lat="45.51306" lon="4.75605">
        <ele>396</ele>
        <time>2021-11-19T22:57:03Z</time>
      </trkpt>
      <trkpt lat="45.51277" lon="4.75655">
        <ele>400</ele>
        <time>2021-11-19T22:57:13Z</time>
      </trkpt>
      <trkpt lat="45.51237" lon="4.75702">
        <ele>400</ele>
        <time>2021-11-19T22:57:25Z</time>
      </trkpt>
      <trkpt lat="45.51234" lon="4.75711">
        <ele>400</ele>
        <time>2021-11-19T22:57:27Z</time>
      </trkpt>
      <trkpt lat="45.51235" lon="4.75726">
        <ele>401</ele>
        <time>2021-11-19T22:57:30Z</time>
      </trkpt>
      <trkpt lat="45.51213" lon="4.75742">
        <ele>400</ele>
        <time>2021-11-19T22:57:35Z</time>
      </trkpt>
      <trkpt lat="45.51188" lon="4.75781">
        <ele>399</ele>
        <time>2021-11-19T22:57:44Z</time>
      </trkpt>
      <trkpt lat="45.51172" lon="4.75816">
        <ele>398</ele>
        <time>2021-11-19T22:57:51Z</time>
      </trkpt>
      <trkpt lat="45.51122" lon="4.75867">
        <ele>397</ele>
        <time>2021-11-19T22:58:05Z</time>
      </trkpt>
      <trkpt lat="45.5111" lon="4.75883">
        <ele>398</ele>
        <time>2021-11-19T22:58:09Z</time>
      </trkpt>
      <trkpt lat="45.5107" lon="4.7595">
        <ele>400</ele>
        <time>2021-11-19T22:58:23Z</time>
      </trkpt>
      <trkpt lat="45.51063" lon="4.75958">
        <ele>401</ele>
        <time>2021-11-19T22:58:26Z</time>
      </trkpt>
      <trkpt lat="45.51057" lon="4.75961">
        <ele>401</ele>
        <time>2021-11-19T22:58:27Z</time>
      </trkpt>
      <trkpt lat="45.51048" lon="4.75957">
        <ele>402</ele>
        <time>2021-11-19T22:58:29Z</time>
      </trkpt>
      <trkpt lat="45.51042" lon="4.75949">
        <ele>403</ele>
        <time>2021-11-19T22:58:31Z</time>
      </trkpt>
      <trkpt lat="45.5103" lon="4.75922">
        <ele>404</ele>
        <time>2021-11-19T22:58:36Z</time>
      </trkpt>
      <trkpt lat="45.50993" lon="4.75866">
        <ele>402</ele>
        <time>2021-11-19T22:58:49Z</time>
      </trkpt>
      <trkpt lat="45.50939" lon="4.758">
        <ele>399</ele>
        <time>2021-11-19T22:59:06Z</time>
      </trkpt>
      <trkpt lat="45.50907" lon="4.75767">
        <ele>397</ele>
        <time>2021-11-19T22:59:15Z</time>
      </trkpt>
      <trkpt lat="45.50879" lon="4.75726">
        <ele>391</ele>
        <time>2021-11-19T22:59:24Z</time>
      </trkpt>
      <trkpt lat="45.50851" lon="4.75706">
        <ele>389</ele>
        <time>2021-11-19T22:59:31Z</time>
      </trkpt>
      <trkpt lat="45.5073" lon="4.75665">
        <ele>381</ele>
        <time>2021-11-19T23:00:01Z</time>
      </trkpt>
      <trkpt lat="45.5071" lon="4.75653">
        <ele>378</ele>
        <time>2021-11-19T23:00:06Z</time>
      </trkpt>
      <trkpt lat="45.50672" lon="4.75642">
        <ele>376</ele>
        <time>2021-11-19T23:00:15Z</time>
      </trkpt>
      <trkpt lat="45.50657" lon="4.75643">
        <ele>375</ele>
        <time>2021-11-19T23:00:18Z</time>
      </trkpt>
      <trkpt lat="45.5063" lon="4.7566">
        <ele>375</ele>
        <time>2021-11-19T23:00:25Z</time>
      </trkpt>
      <trkpt lat="45.50609" lon="4.75667">
        <ele>374</ele>
        <time>2021-11-19T23:00:30Z</time>
      </trkpt>
      <trkpt lat="45.50563" lon="4.7567">
        <ele>368</ele>
        <time>2021-11-19T23:00:41Z</time>
      </trkpt>
      <trkpt lat="45.50543" lon="4.75667">
        <ele>365</ele>
        <time>2021-11-19T23:00:46Z</time>
      </trkpt>
      <trkpt lat="45.50536" lon="4.75661">
        <ele>363</ele>
        <time>2021-11-19T23:00:47Z</time>
      </trkpt>
      <trkpt lat="45.50529" lon="4.75646">
        <ele>362</ele>
        <time>2021-11-19T23:00:50Z</time>
      </trkpt>
      <trkpt lat="45.50526" lon="4.75629">
        <ele>361</ele>
        <time>2021-11-19T23:00:53Z</time>
      </trkpt>
      <trkpt lat="45.50529" lon="4.75612">
        <ele>360</ele>
        <time>2021-11-19T23:00:56Z</time>
      </trkpt>
      <trkpt lat="45.50546" lon="4.75585">
        <ele>362</ele>
        <time>2021-11-19T23:01:02Z</time>
      </trkpt>
      <trkpt lat="45.5056" lon="4.75571">
        <ele>361</ele>
        <time>2021-11-19T23:01:06Z</time>
      </trkpt>
      <trkpt lat="45.50598" lon="4.75544">
        <ele>359</ele>
        <time>2021-11-19T23:01:16Z</time>
      </trkpt>
      <trkpt lat="45.50659" lon="4.75518">
        <ele>355</ele>
        <time>2021-11-19T23:01:31Z</time>
      </trkpt>
      <trkpt lat="45.50708" lon="4.75503">
        <ele>351</ele>
        <time>2021-11-19T23:01:43Z</time>
      </trkpt>
      <trkpt lat="45.50736" lon="4.75506">
        <ele>351</ele>
        <time>2021-11-19T23:01:49Z</time>
      </trkpt>
      <trkpt lat="45.5074" lon="4.75502">
        <ele>350</ele>
        <time>2021-11-19T23:01:50Z</time>
      </trkpt>
      <trkpt lat="45.50741" lon="4.75493">
        <ele>349</ele>
        <time>2021-11-19T23:01:52Z</time>
      </trkpt>
      <trkpt lat="45.50737" lon="4.75487">
        <ele>350</ele>
        <time>2021-11-19T23:01:53Z</time>
      </trkpt>
      <trkpt lat="45.50719" lon="4.75481">
        <ele>350</ele>
        <time>2021-11-19T23:01:57Z</time>
      </trkpt>
      <trkpt lat="45.50691" lon="4.7548">
        <ele>351</ele>
        <time>2021-11-19T23:02:04Z</time>
      </trkpt>
      <trkpt lat="45.50708" lon="4.75474">
        <ele>351</ele>
        <time>2021-11-19T23:02:08Z</time>
      </trkpt>
      <trkpt lat="45.50754" lon="4.75479">
        <ele>349</ele>
        <time>2021-11-19T23:02:19Z</time>
      </trkpt>
      <trkpt lat="45.5076" lon="4.75476">
        <ele>350</ele>
        <time>2021-11-19T23:02:20Z</time>
      </trkpt>
      <trkpt lat="45.50767" lon="4.75458">
        <ele>351</ele>
        <time>2021-11-19T23:02:24Z</time>
      </trkpt>
      <trkpt lat="45.50767" lon="4.75452">
        <ele>351</ele>
        <time>2021-11-19T23:02:25Z</time>
      </trkpt>
      <trkpt lat="45.50755" lon="4.75428">
        <ele>350</ele>
        <time>2021-11-19T23:02:29Z</time>
      </trkpt>
      <trkpt lat="45.50724" lon="4.75417">
        <ele>352</ele>
        <time>2021-11-19T23:02:37Z</time>
      </trkpt>
      <trkpt lat="45.50706" lon="4.75402">
        <ele>355</ele>
        <time>2021-11-19T23:02:42Z</time>
      </trkpt>
      <trkpt lat="45.50622" lon="4.75368">
        <ele>358</ele>
        <time>2021-11-19T23:03:02Z</time>
      </trkpt>
      <trkpt lat="45.50624" lon="4.75357">
        <ele>360</ele>
        <time>2021-11-19T23:03:04Z</time>
      </trkpt>
      <trkpt lat="45.5064" lon="4.75358">
        <ele>361</ele>
        <time>2021-11-19T23:03:08Z</time>
      </trkpt>
      <trkpt lat="45.50649" lon="4.75355">
        <ele>363</ele>
        <time>2021-11-19T23:03:10Z</time>
      </trkpt>
      <trkpt lat="45.50664" lon="4.75341">
        <ele>366</ele>
        <time>2021-11-19T23:03:14Z</time>
      </trkpt>
      <trkpt lat="45.50667" lon="4.75323">
        <ele>369</ele>
        <time>2021-11-19T23:03:17Z</time>
      </trkpt>
      <trkpt lat="45.50661" lon="4.75291">
        <ele>370</ele>
        <time>2021-11-19T23:03:23Z</time>
      </trkpt>
      <trkpt lat="45.5066" lon="4.75271">
        <ele>372</ele>
        <time>2021-11-19T23:03:26Z</time>
      </trkpt>
      <trkpt lat="45.50669" lon="4.75253">
        <ele>374</ele>
        <time>2021-11-19T23:03:29Z</time>
      </trkpt>
      <trkpt lat="45.50671" lon="4.7524">
        <ele>375</ele>
        <time>2021-11-19T23:03:32Z</time>
      </trkpt>
      <trkpt lat="45.50644" lon="4.75191">
        <ele>375</ele>
        <time>2021-11-19T23:03:42Z</time>
      </trkpt>
      <trkpt lat="45.5063" lon="4.75183">
        <ele>375</ele>
        <time>2021-11-19T23:03:45Z</time>
      </trkpt>
      <trkpt lat="45.50614" lon="4.75168">
        <ele>374</ele>
        <time>2021-11-19T23:03:50Z</time>
      </trkpt>
      <trkpt lat="45.5061" lon="4.75159">
        <ele>374</ele>
        <time>2021-11-19T23:03:52Z</time>
      </trkpt>
      <trkpt lat="45.5061" lon="4.75143">
        <ele>374</ele>
        <time>2021-11-19T23:03:54Z</time>
      </trkpt>
      <trkpt lat="45.50604" lon="4.75143">
        <ele>374</ele>
        <time>2021-11-19T23:03:56Z</time>
      </trkpt>
      <trkpt lat="45.50596" lon="4.7513">
        <ele>373</ele>
        <time>2021-11-19T23:03:58Z</time>
      </trkpt>
      <trkpt lat="45.50584" lon="4.75101">
        <ele>373</ele>
        <time>2021-11-19T23:04:04Z</time>
      </trkpt>
      <trkpt lat="45.50578" lon="4.7508">
        <ele>372</ele>
        <time>2021-11-19T23:04:08Z</time>
      </trkpt>
      <trkpt lat="45.50576" lon="4.75058">
        <ele>371</ele>
        <time>2021-11-19T23:04:11Z</time>
      </trkpt>
      <trkpt lat="45.50582" lon="4.75019">
        <ele>370</ele>
        <time>2021-11-19T23:04:18Z</time>
      </trkpt>
      <trkpt lat="45.50594" lon="4.74987">
        <ele>369</ele>
        <time>2021-11-19T23:04:24Z</time>
      </trkpt>
      <trkpt lat="45.50619" lon="4.74959">
        <ele>369</ele>
        <time>2021-11-19T23:04:31Z</time>
      </trkpt>
      <trkpt lat="45.50645" lon="4.74946">
        <ele>370</ele>
        <time>2021-11-19T23:04:38Z</time>
      </trkpt>
      <trkpt lat="45.50658" lon="4.74937">
        <ele>371</ele>
        <time>2021-11-19T23:04:41Z</time>
      </trkpt>
      <trkpt lat="45.50661" lon="4.74931">
        <ele>370</ele>
        <time>2021-11-19T23:04:42Z</time>
      </trkpt>
      <trkpt lat="45.50663" lon="4.74918">
        <ele>370</ele>
        <time>2021-11-19T23:04:44Z</time>
      </trkpt>
      <trkpt lat="45.50656" lon="4.74888">
        <ele>370</ele>
        <time>2021-11-19T23:04:50Z</time>
      </trkpt>
      <trkpt lat="45.5066" lon="4.74854">
        <ele>371</ele>
        <time>2021-11-19T23:04:55Z</time>
      </trkpt>
      <trkpt lat="45.50658" lon="4.74841">
        <ele>371</ele>
        <time>2021-11-19T23:04:57Z</time>
      </trkpt>
      <trkpt lat="45.5065" lon="4.74836">
        <ele>371</ele>
        <time>2021-11-19T23:04:59Z</time>
      </trkpt>
      <trkpt lat="45.50625" lon="4.74847">
        <ele>370</ele>
        <time>2021-11-19T23:05:06Z</time>
      </trkpt>
      <trkpt lat="45.50589" lon="4.74854">
        <ele>369</ele>
        <time>2021-11-19T23:05:14Z</time>
      </trkpt>
      <trkpt lat="45.50554" lon="4.74878">
        <ele>368</ele>
        <time>2021-11-19T23:05:23Z</time>
      </trkpt>
      <trkpt lat="45.50542" lon="4.74882">
        <ele>369</ele>
        <time>2021-11-19T23:05:26Z</time>
      </trkpt>
      <trkpt lat="45.50524" lon="4.74881">
        <ele>370</ele>
        <time>2021-11-19T23:05:30Z</time>
      </trkpt>
      <trkpt lat="45.50506" lon="4.74884">
        <ele>371</ele>
        <time>2021-11-19T23:05:34Z</time>
      </trkpt>
      <trkpt lat="45.50495" lon="4.74891">
        <ele>372</ele>
        <time>2021-11-19T23:05:37Z</time>
      </trkpt>
      <trkpt lat="45.50458" lon="4.74925">
        <ele>372</ele>
        <time>2021-11-19T23:05:47Z</time>
      </trkpt>
      <trkpt lat="45.50439" lon="4.74936">
        <ele>373</ele>
        <time>2021-11-19T23:05:52Z</time>
      </trkpt>
      <trkpt lat="45.5043" lon="4.74933">
        <ele>374</ele>
        <time>2021-11-19T23:05:54Z</time>
      </trkpt>
      <trkpt lat="45.50426" lon="4.74923">
        <ele>375</ele>
        <time>2021-11-19T23:05:56Z</time>
      </trkpt>
      <trkpt lat="45.50419" lon="4.74882">
        <ele>378</ele>
        <time>2021-11-19T23:06:03Z</time>
      </trkpt>
      <trkpt lat="45.504" lon="4.74817">
        <ele>380</ele>
        <time>2021-11-19T23:06:15Z</time>
      </trkpt>
      <trkpt lat="45.50391" lon="4.748">
        <ele>380</ele>
        <time>2021-11-19T23:06:18Z</time>
      </trkpt>
      <trkpt lat="45.50375" lon="4.7478">
        <ele>378</ele>
        <time>2021-11-19T23:06:23Z</time>
      </trkpt>
      <trkpt lat="45.50381" lon="4.74771">
        <ele>379</ele>
        <time>2021-11-19T23:06:25Z</time>
      </trkpt>
      <trkpt lat="45.50378" lon="4.74751">
        <ele>378</ele>
        <time>2021-11-19T23:06:29Z</time>
      </trkpt>
      <trkpt lat="45.5038" lon="4.74723">
        <ele>377</ele>
        <time>2021-11-19T23:06:33Z</time>
      </trkpt>
      <trkpt lat="45.50389" lon="4.74664">
        <ele>378</ele>
        <time>2021-11-19T23:06:43Z</time>
      </trkpt>
      <trkpt lat="45.50388" lon="4.74576">
        <ele>380</ele>
        <time>2021-11-19T23:06:57Z</time>
      </trkpt>
      <trkpt lat="45.50382" lon="4.74549">
        <ele>380</ele>
        <time>2021-11-19T23:07:02Z</time>
      </trkpt>
      <trkpt lat="45.50376" lon="4.74537">
        <ele>380</ele>
        <time>2021-11-19T23:07:05Z</time>
      </trkpt>
      <trkpt lat="45.50337" lon="4.74501">
        <ele>376</ele>
        <time>2021-11-19T23:07:15Z</time>
      </trkpt>
      <trkpt lat="45.50314" lon="4.74472">
        <ele>374</ele>
        <time>2021-11-19T23:07:23Z</time>
      </trkpt>
      <trkpt lat="45.50286" lon="4.74455">
        <ele>371</ele>
        <time>2021-11-19T23:07:30Z</time>
      </trkpt>
      <trkpt lat="45.50219" lon="4.7443">
        <ele>358</ele>
        <time>2021-11-19T23:07:46Z</time>
      </trkpt>
      <trkpt lat="45.50201" lon="4.7442">
        <ele>354</ele>
        <time>2021-11-19T23:07:50Z</time>
      </trkpt>
      <trkpt lat="45.50175" lon="4.74424">
        <ele>349</ele>
        <time>2021-11-19T23:07:56Z</time>
      </trkpt>
      <trkpt lat="45.50172" lon="4.74417">
        <ele>348</ele>
        <time>2021-11-19T23:07:58Z</time>
      </trkpt>
      <trkpt lat="45.50183" lon="4.74386">
        <ele>349</ele>
        <time>2021-11-19T23:08:03Z</time>
      </trkpt>
      <trkpt lat="45.5018" lon="4.74377">
        <ele>348</ele>
        <time>2021-11-19T23:08:05Z</time>
      </trkpt>
      <trkpt lat="45.50173" lon="4.7437">
        <ele>347</ele>
        <time>2021-11-19T23:08:07Z</time>
      </trkpt>
      <trkpt lat="45.50133" lon="4.74365">
        <ele>342</ele>
        <time>2021-11-19T23:08:16Z</time>
      </trkpt>
      <trkpt lat="45.50121" lon="4.74374">
        <ele>340</ele>
        <time>2021-11-19T23:08:20Z</time>
      </trkpt>
      <trkpt lat="45.501" lon="4.74383">
        <ele>337</ele>
        <time>2021-11-19T23:08:25Z</time>
      </trkpt>
      <trkpt lat="45.50101" lon="4.74363">
        <ele>337</ele>
        <time>2021-11-19T23:08:28Z</time>
      </trkpt>
      <trkpt lat="45.50091" lon="4.74273">
        <ele>339</ele>
        <time>2021-11-19T23:08:43Z</time>
      </trkpt>
      <trkpt lat="45.50092" lon="4.74239">
        <ele>340</ele>
        <time>2021-11-19T23:08:49Z</time>
      </trkpt>
      <trkpt lat="45.50067" lon="4.74233">
        <ele>342</ele>
        <time>2021-11-19T23:08:54Z</time>
      </trkpt>
      <trkpt lat="45.50062" lon="4.74216">
        <ele>343</ele>
        <time>2021-11-19T23:08:57Z</time>
      </trkpt>
      <trkpt lat="45.50063" lon="4.74208">
        <ele>343</ele>
        <time>2021-11-19T23:08:59Z</time>
      </trkpt>
      <trkpt lat="45.5006" lon="4.74186">
        <ele>345</ele>
        <time>2021-11-19T23:09:02Z</time>
      </trkpt>
      <trkpt lat="45.50053" lon="4.74162">
        <ele>347</ele>
        <time>2021-11-19T23:09:07Z</time>
      </trkpt>
      <trkpt lat="45.50045" lon="4.74163">
        <ele>349</ele>
        <time>2021-11-19T23:09:09Z</time>
      </trkpt>
      <trkpt lat="45.50038" lon="4.74182">
        <ele>350</ele>
        <time>2021-11-19T23:09:12Z</time>
      </trkpt>
      <trkpt lat="45.50029" lon="4.74244">
        <ele>349</ele>
        <time>2021-11-19T23:09:22Z</time>
      </trkpt>
      <trkpt lat="45.5002" lon="4.74277">
        <ele>350</ele>
        <time>2021-11-19T23:09:28Z</time>
      </trkpt>
      <trkpt lat="45.5001" lon="4.74298">
        <ele>351</ele>
        <time>2021-11-19T23:09:32Z</time>
      </trkpt>
      <trkpt lat="45.49985" lon="4.74381">
        <ele>353</ele>
        <time>2021-11-19T23:09:47Z</time>
      </trkpt>
      <trkpt lat="45.49975" lon="4.74438">
        <ele>352</ele>
        <time>2021-11-19T23:09:57Z</time>
      </trkpt>
      <trkpt lat="45.4996" lon="4.74479">
        <ele>353</ele>
        <time>2021-11-19T23:10:04Z</time>
      </trkpt>
      <trkpt lat="45.49933" lon="4.7452">
        <ele>356</ele>
        <time>2021-11-19T23:10:14Z</time>
      </trkpt>
      <trkpt lat="45.49922" lon="4.74546">
        <ele>357</ele>
        <time>2021-11-19T23:10:19Z</time>
      </trkpt>
      <trkpt lat="45.49917" lon="4.74566">
        <ele>357</ele>
        <time>2021-11-19T23:10:22Z</time>
      </trkpt>
      <trkpt lat="45.49916" lon="4.74607">
        <ele>354</ele>
        <time>2021-11-19T23:10:29Z</time>
      </trkpt>
      <trkpt lat="45.49912" lon="4.74633">
        <ele>353</ele>
        <time>2021-11-19T23:10:33Z</time>
      </trkpt>
      <trkpt lat="45.49907" lon="4.74643">
        <ele>353</ele>
        <time>2021-11-19T23:10:35Z</time>
      </trkpt>
      <trkpt lat="45.49901" lon="4.74649">
        <ele>353</ele>
        <time>2021-11-19T23:10:37Z</time>
      </trkpt>
      <trkpt lat="45.49898" lon="4.74649">
        <ele>353</ele>
        <time>2021-11-19T23:10:38Z</time>
      </trkpt>
      <trkpt lat="45.49892" lon="4.74639">
        <ele>354</ele>
        <time>2021-11-19T23:10:40Z</time>
      </trkpt>
      <trkpt lat="45.4989" lon="4.74621">
        <ele>356</ele>
        <time>2021-11-19T23:10:43Z</time>
      </trkpt>
      <trkpt lat="45.49883" lon="4.74603">
        <ele>358</ele>
        <time>2021-11-19T23:10:46Z</time>
      </trkpt>
      <trkpt lat="45.49874" lon="4.74538">
        <ele>364</ele>
        <time>2021-11-19T23:10:57Z</time>
      </trkpt>
      <trkpt lat="45.49867" lon="4.74511">
        <ele>367</ele>
        <time>2021-11-19T23:11:02Z</time>
      </trkpt>
      <trkpt lat="45.49858" lon="4.74498">
        <ele>370</ele>
        <time>2021-11-19T23:11:05Z</time>
      </trkpt>
      <trkpt lat="45.49846" lon="4.74463">
        <ele>374</ele>
        <time>2021-11-19T23:11:11Z</time>
      </trkpt>
      <trkpt lat="45.49827" lon="4.74385">
        <ele>378</ele>
        <time>2021-11-19T23:11:25Z</time>
      </trkpt>
      <trkpt lat="45.4979" lon="4.74278">
        <ele>379</ele>
        <time>2021-11-19T23:11:44Z</time>
      </trkpt>
      <trkpt lat="45.49776" lon="4.74205">
        <ele>382</ele>
        <time>2021-11-19T23:11:56Z</time>
      </trkpt>
      <trkpt lat="45.49728" lon="4.74111">
        <ele>389</ele>
        <time>2021-11-19T23:12:15Z</time>
      </trkpt>
      <trkpt lat="45.49711" lon="4.74069">
        <ele>391</ele>
        <time>2021-11-19T23:12:23Z</time>
      </trkpt>
      <trkpt lat="45.49695" lon="4.7402">
        <ele>392</ele>
        <time>2021-11-19T23:12:32Z</time>
      </trkpt>
      <trkpt lat="45.49655" lon="4.7392">
        <ele>397</ele>
        <time>2021-11-19T23:12:51Z</time>
      </trkpt>
      <trkpt lat="45.49617" lon="4.73915">
        <ele>397</ele>
        <time>2021-11-19T23:13:00Z</time>
      </trkpt>
      <trkpt lat="45.4957" lon="4.739">
        <ele>397</ele>
        <time>2021-11-19T23:13:11Z</time>
      </trkpt>
      <trkpt lat="45.49557" lon="4.7389">
        <ele>396</ele>
        <time>2021-11-19T23:13:15Z</time>
      </trkpt>
      <trkpt lat="45.4953" lon="4.73887">
        <ele>395</ele>
        <time>2021-11-19T23:13:21Z</time>
      </trkpt>
      <trkpt lat="45.49499" lon="4.73897">
        <ele>393</ele>
        <time>2021-11-19T23:13:28Z</time>
      </trkpt>
      <trkpt lat="45.49448" lon="4.73928">
        <ele>391</ele>
        <time>2021-11-19T23:13:41Z</time>
      </trkpt>
      <trkpt lat="45.49421" lon="4.73949">
        <ele>389</ele>
        <time>2021-11-19T23:13:49Z</time>
      </trkpt>
      <trkpt lat="45.49403" lon="4.73967">
        <ele>389</ele>
        <time>2021-11-19T23:13:54Z</time>
      </trkpt>
      <trkpt lat="45.49385" lon="4.7399">
        <ele>389</ele>
        <time>2021-11-19T23:13:59Z</time>
      </trkpt>
      <trkpt lat="45.49325" lon="4.74048">
        <ele>388</ele>
        <time>2021-11-19T23:14:16Z</time>
      </trkpt>
      <trkpt lat="45.49299" lon="4.74068">
        <ele>388</ele>
        <time>2021-11-19T23:14:23Z</time>
      </trkpt>
      <trkpt lat="45.49265" lon="4.74079">
        <ele>390</ele>
        <time>2021-11-19T23:14:31Z</time>
      </trkpt>
      <trkpt lat="45.49201" lon="4.74095">
        <ele>389</ele>
        <time>2021-11-19T23:14:46Z</time>
      </trkpt>
      <trkpt lat="45.49185" lon="4.74106">
        <ele>388</ele>
        <time>2021-11-19T23:14:51Z</time>
      </trkpt>
      <trkpt lat="45.4916" lon="4.74143">
        <ele>386</ele>
        <time>2021-11-19T23:14:59Z</time>
      </trkpt>
      <trkpt lat="45.49097" lon="4.74268">
        <ele>383</ele>
        <time>2021-11-19T23:15:24Z</time>
      </trkpt>
      <trkpt lat="45.49" lon="4.74386">
        <ele>377</ele>
        <time>2021-11-19T23:15:54Z</time>
      </trkpt>
      <trkpt lat="45.48925" lon="4.74469">
        <ele>372</ele>
        <time>2021-11-19T23:16:16Z</time>
      </trkpt>
      <trkpt lat="45.48917" lon="4.74469">
        <ele>372</ele>
        <time>2021-11-19T23:16:18Z</time>
      </trkpt>
      <trkpt lat="45.48876" lon="4.74617">
        <ele>371</ele>
        <time>2021-11-19T23:16:44Z</time>
      </trkpt>
      <trkpt lat="45.48868" lon="4.74655">
        <ele>371</ele>
        <time>2021-11-19T23:16:51Z</time>
      </trkpt>
      <trkpt lat="45.48833" lon="4.74953">
        <ele>363</ele>
        <time>2021-11-19T23:17:40Z</time>
      </trkpt>
      <trkpt lat="45.48822" lon="4.74985">
        <ele>362</ele>
        <time>2021-11-19T23:17:46Z</time>
      </trkpt>
      <trkpt lat="45.48799" lon="4.75022">
        <ele>359</ele>
        <time>2021-11-19T23:17:54Z</time>
      </trkpt>
      <trkpt lat="45.48766" lon="4.75065">
        <ele>356</ele>
        <time>2021-11-19T23:18:04Z</time>
      </trkpt>
      <trkpt lat="45.48712" lon="4.75101">
        <ele>355</ele>
        <time>2021-11-19T23:18:18Z</time>
      </trkpt>
      <trkpt lat="45.4867" lon="4.75125">
        <ele>355</ele>
        <time>2021-11-19T23:18:29Z</time>
      </trkpt>
      <trkpt lat="45.48629" lon="4.75161">
        <ele>354</ele>
        <time>2021-11-19T23:18:40Z</time>
      </trkpt>
      <trkpt lat="45.48504" lon="4.75286">
        <ele>354</ele>
        <time>2021-11-19T23:19:16Z</time>
      </trkpt>
      <trkpt lat="45.4848" lon="4.75323">
        <ele>352</ele>
        <time>2021-11-19T23:19:24Z</time>
      </trkpt>
      <trkpt lat="45.48453" lon="4.75348">
        <ele>350</ele>
        <time>2021-11-19T23:19:32Z</time>
      </trkpt>
      <trkpt lat="45.48428" lon="4.75366">
        <ele>348</ele>
        <time>2021-11-19T23:19:38Z</time>
      </trkpt>
      <trkpt lat="45.48358" lon="4.75436">
        <ele>341</ele>
        <time>2021-11-19T23:19:58Z</time>
      </trkpt>
      <trkpt lat="45.48318" lon="4.75459">
        <ele>340</ele>
        <time>2021-11-19T23:20:08Z</time>
      </trkpt>
      <trkpt lat="45.48235" lon="4.75499">
        <ele>340</ele>
        <time>2021-11-19T23:20:29Z</time>
      </trkpt>
      <trkpt lat="45.48205" lon="4.75523">
        <ele>341</ele>
        <time>2021-11-19T23:20:37Z</time>
      </trkpt>
      <trkpt lat="45.48152" lon="4.75575">
        <ele>343</ele>
        <time>2021-11-19T23:20:52Z</time>
      </trkpt>
      <trkpt lat="45.48136" lon="4.75597">
        <ele>343</ele>
        <time>2021-11-19T23:20:57Z</time>
      </trkpt>
      <trkpt lat="45.48072" lon="4.75703">
        <ele>344</ele>
        <time>2021-11-19T23:21:20Z</time>
      </trkpt>
      <trkpt lat="45.47991" lon="4.75791">
        <ele>340</ele>
        <time>2021-11-19T23:21:44Z</time>
      </trkpt>
      <trkpt lat="45.47952" lon="4.75822">
        <ele>340</ele>
        <time>2021-11-19T23:21:54Z</time>
      </trkpt>
      <trkpt lat="45.47899" lon="4.75859">
        <ele>338</ele>
        <time>2021-11-19T23:22:08Z</time>
      </trkpt>
      <trkpt lat="45.47819" lon="4.75913">
        <ele>337</ele>
        <time>2021-11-19T23:22:28Z</time>
      </trkpt>
      <trkpt lat="45.47792" lon="4.75928">
        <ele>335</ele>
        <time>2021-11-19T23:22:35Z</time>
      </trkpt>
      <trkpt lat="45.47764" lon="4.75958">
        <ele>334</ele>
        <time>2021-11-19T23:22:43Z</time>
      </trkpt>
      <trkpt lat="45.47744" lon="4.7599">
        <ele>333</ele>
        <time>2021-11-19T23:22:50Z</time>
      </trkpt>
      <trkpt lat="45.47739" lon="4.75988">
        <ele>332</ele>
        <time>2021-11-19T23:22:52Z</time>
      </trkpt>
      <trkpt lat="45.47734" lon="4.75932">
        <ele>332</ele>
        <time>2021-11-19T23:23:01Z</time>
      </trkpt>
      <trkpt lat="45.4773" lon="4.75762">
        <ele>330</ele>
        <time>2021-11-19T23:23:29Z</time>
      </trkpt>
      <trkpt lat="45.47725" lon="4.75703">
        <ele>329</ele>
        <time>2021-11-19T23:23:38Z</time>
      </trkpt>
      <trkpt lat="45.47706" lon="4.75681">
        <ele>329</ele>
        <time>2021-11-19T23:23:44Z</time>
      </trkpt>
      <trkpt lat="45.47665" lon="4.75647">
        <ele>327</ele>
        <time>2021-11-19T23:23:55Z</time>
      </trkpt>
      <trkpt lat="45.47675" lon="4.75629">
        <ele>326</ele>
        <time>2021-11-19T23:23:59Z</time>
      </trkpt>
      <trkpt lat="45.47696" lon="4.75608">
        <ele>326</ele>
        <time>2021-11-19T23:24:05Z</time>
      </trkpt>
      <trkpt lat="45.47713" lon="4.75559">
        <ele>326</ele>
        <time>2021-11-19T23:24:14Z</time>
      </trkpt>
      <trkpt lat="45.47714" lon="4.75538">
        <ele>326</ele>
        <time>2021-11-19T23:24:17Z</time>
      </trkpt>
      <trkpt lat="45.47709" lon="4.75507">
        <ele>325</ele>
        <time>2021-11-19T23:24:23Z</time>
      </trkpt>
      <trkpt lat="45.47703" lon="4.75484">
        <ele>325</ele>
        <time>2021-11-19T23:24:27Z</time>
      </trkpt>
      <trkpt lat="45.47684" lon="4.75434">
        <ele>324</ele>
        <time>2021-11-19T23:24:36Z</time>
      </trkpt>
      <trkpt lat="45.4768" lon="4.75405">
        <ele>322</ele>
        <time>2021-11-19T23:24:41Z</time>
      </trkpt>
      <trkpt lat="45.47681" lon="4.75378">
        <ele>319</ele>
        <time>2021-11-19T23:24:45Z</time>
      </trkpt>
      <trkpt lat="45.47688" lon="4.75354">
        <ele>317</ele>
        <time>2021-11-19T23:24:49Z</time>
      </trkpt>
      <trkpt lat="45.47753" lon="4.75277">
        <ele>316</ele>
        <time>2021-11-19T23:25:09Z</time>
      </trkpt>
      <trkpt lat="45.47783" lon="4.75249">
        <ele>316</ele>
        <time>2021-11-19T23:25:18Z</time>
      </trkpt>
      <trkpt lat="45.47811" lon="4.75234">
        <ele>318</ele>
        <time>2021-11-19T23:25:25Z</time>
      </trkpt>
      <trkpt lat="45.4783" lon="4.75236">
        <ele>321</ele>
        <time>2021-11-19T23:25:29Z</time>
      </trkpt>
      <trkpt lat="45.47875" lon="4.75256">
        <ele>326</ele>
        <time>2021-11-19T23:25:40Z</time>
      </trkpt>
      <trkpt lat="45.4792" lon="4.75214">
        <ele>321</ele>
        <time>2021-11-19T23:25:53Z</time>
      </trkpt>
      <trkpt lat="45.47928" lon="4.75187">
        <ele>317</ele>
        <time>2021-11-19T23:25:57Z</time>
      </trkpt>
      <trkpt lat="45.47955" lon="4.75161">
        <ele>314</ele>
        <time>2021-11-19T23:26:05Z</time>
      </trkpt>
      <trkpt lat="45.47967" lon="4.75143">
        <ele>312</ele>
        <time>2021-11-19T23:26:09Z</time>
      </trkpt>
      <trkpt lat="45.47979" lon="4.75133">
        <ele>311</ele>
        <time>2021-11-19T23:26:12Z</time>
      </trkpt>
      <trkpt lat="45.47982" lon="4.75127">
        <ele>310</ele>
        <time>2021-11-19T23:26:13Z</time>
      </trkpt>
      <trkpt lat="45.47996" lon="4.75113">
        <ele>307</ele>
        <time>2021-11-19T23:26:17Z</time>
      </trkpt>
      <trkpt lat="45.48009" lon="4.75106">
        <ele>307</ele>
        <time>2021-11-19T23:26:21Z</time>
      </trkpt>
      <trkpt lat="45.48012" lon="4.75102">
        <ele>306</ele>
        <time>2021-11-19T23:26:22Z</time>
      </trkpt>
      <trkpt lat="45.48028" lon="4.75097">
        <ele>306</ele>
        <time>2021-11-19T23:26:26Z</time>
      </trkpt>
      <trkpt lat="45.48063" lon="4.75073">
        <ele>305</ele>
        <time>2021-11-19T23:26:35Z</time>
      </trkpt>
      <trkpt lat="45.48073" lon="4.7507">
        <ele>306</ele>
        <time>2021-11-19T23:26:37Z</time>
      </trkpt>
      <trkpt lat="45.48078" lon="4.75034">
        <ele>302</ele>
        <time>2021-11-19T23:26:43Z</time>
      </trkpt>
      <trkpt lat="45.48088" lon="4.75024">
        <ele>303</ele>
        <time>2021-11-19T23:26:46Z</time>
      </trkpt>
      <trkpt lat="45.48056" lon="4.74866">
        <ele>316</ele>
        <time>2021-11-19T23:27:13Z</time>
      </trkpt>
      <trkpt lat="45.48075" lon="4.74752">
        <ele>323</ele>
        <time>2021-11-19T23:27:32Z</time>
      </trkpt>
      <trkpt lat="45.48064" lon="4.74716">
        <ele>324</ele>
        <time>2021-11-19T23:27:38Z</time>
      </trkpt>
      <trkpt lat="45.48055" lon="4.74716">
        <ele>324</ele>
        <time>2021-11-19T23:27:40Z</time>
      </trkpt>
      <trkpt lat="45.48038" lon="4.74762">
        <ele>323</ele>
        <time>2021-11-19T23:27:49Z</time>
      </trkpt>
      <trkpt lat="45.47917" lon="4.74752">
        <ele>326</ele>
        <time>2021-11-19T23:28:17Z</time>
      </trkpt>
      <trkpt lat="45.4787" lon="4.74733">
        <ele>329</ele>
        <time>2021-11-19T23:28:29Z</time>
      </trkpt>
      <trkpt lat="45.47822" lon="4.74703">
        <ele>331</ele>
        <time>2021-11-19T23:28:41Z</time>
      </trkpt>
      <trkpt lat="45.47794" lon="4.74683">
        <ele>332</ele>
        <time>2021-11-19T23:28:48Z</time>
      </trkpt>
      <trkpt lat="45.47738" lon="4.74626">
        <ele>334</ele>
        <time>2021-11-19T23:29:04Z</time>
      </trkpt>
      <trkpt lat="45.47727" lon="4.7462">
        <ele>335</ele>
        <time>2021-11-19T23:29:07Z</time>
      </trkpt>
      <trkpt lat="45.47691" lon="4.74582">
        <ele>336</ele>
        <time>2021-11-19T23:29:18Z</time>
      </trkpt>
      <trkpt lat="45.47607" lon="4.74503">
        <ele>334</ele>
        <time>2021-11-19T23:29:41Z</time>
      </trkpt>
      <trkpt lat="45.47583" lon="4.74469">
        <ele>332</ele>
        <time>2021-11-19T23:29:49Z</time>
      </trkpt>
      <trkpt lat="45.47563" lon="4.74453">
        <ele>331</ele>
        <time>2021-11-19T23:29:54Z</time>
      </trkpt>
      <trkpt lat="45.47546" lon="4.74457">
        <ele>330</ele>
        <time>2021-11-19T23:29:58Z</time>
      </trkpt>
      <trkpt lat="45.47536" lon="4.74451">
        <ele>329</ele>
        <time>2021-11-19T23:30:01Z</time>
      </trkpt>
      <trkpt lat="45.47495" lon="4.74415">
        <ele>325</ele>
        <time>2021-11-19T23:30:12Z</time>
      </trkpt>
      <trkpt lat="45.47479" lon="4.74405">
        <ele>323</ele>
        <time>2021-11-19T23:30:16Z</time>
      </trkpt>
      <trkpt lat="45.47457" lon="4.74371">
        <ele>319</ele>
        <time>2021-11-19T23:30:24Z</time>
      </trkpt>
      <trkpt lat="45.47449" lon="4.74365">
        <ele>318</ele>
        <time>2021-11-19T23:30:26Z</time>
      </trkpt>
      <trkpt lat="45.47421" lon="4.74364">
        <ele>316</ele>
        <time>2021-11-19T23:30:32Z</time>
      </trkpt>
      <trkpt lat="45.47412" lon="4.74357">
        <ele>316</ele>
        <time>2021-11-19T23:30:35Z</time>
      </trkpt>
      <trkpt lat="45.47407" lon="4.74341">
        <ele>316</ele>
        <time>2021-11-19T23:30:38Z</time>
      </trkpt>
      <trkpt lat="45.47397" lon="4.74327">
        <ele>316</ele>
        <time>2021-11-19T23:30:41Z</time>
      </trkpt>
      <trkpt lat="45.47375" lon="4.74311">
        <ele>318</ele>
        <time>2021-11-19T23:30:47Z</time>
      </trkpt>
      <trkpt lat="45.47367" lon="4.74309">
        <ele>319</ele>
        <time>2021-11-19T23:30:49Z</time>
      </trkpt>
      <trkpt lat="45.47361" lon="4.74313">
        <ele>319</ele>
        <time>2021-11-19T23:30:50Z</time>
      </trkpt>
      <trkpt lat="45.47351" lon="4.74326">
        <ele>318</ele>
        <time>2021-11-19T23:30:53Z</time>
      </trkpt>
      <trkpt lat="45.47334" lon="4.74328">
        <ele>319</ele>
        <time>2021-11-19T23:30:57Z</time>
      </trkpt>
      <trkpt lat="45.47333" lon="4.74342">
        <ele>319</ele>
        <time>2021-11-19T23:31:00Z</time>
      </trkpt>
      <trkpt lat="45.47338" lon="4.74361">
        <ele>320</ele>
        <time>2021-11-19T23:31:03Z</time>
      </trkpt>
      <trkpt lat="45.47335" lon="4.74373">
        <ele>321</ele>
        <time>2021-11-19T23:31:05Z</time>
      </trkpt>
      <trkpt lat="45.47327" lon="4.74373">
        <ele>322</ele>
        <time>2021-11-19T23:31:07Z</time>
      </trkpt>
      <trkpt lat="45.47319" lon="4.74369">
        <ele>322</ele>
        <time>2021-11-19T23:31:09Z</time>
      </trkpt>
      <trkpt lat="45.4731" lon="4.7437">
        <ele>324</ele>
        <time>2021-11-19T23:31:11Z</time>
      </trkpt>
      <trkpt lat="45.47281" lon="4.74408">
        <ele>328</ele>
        <time>2021-11-19T23:31:20Z</time>
      </trkpt>
      <trkpt lat="45.47266" lon="4.74417">
        <ele>329</ele>
        <time>2021-11-19T23:31:24Z</time>
      </trkpt>
      <trkpt lat="45.4724" lon="4.74442">
        <ele>331</ele>
        <time>2021-11-19T23:31:31Z</time>
      </trkpt>
      <trkpt lat="45.47188" lon="4.74479">
        <ele>331</ele>
        <time>2021-11-19T23:31:45Z</time>
      </trkpt>
      <trkpt lat="45.4717" lon="4.74496">
        <ele>331</ele>
        <time>2021-11-19T23:31:50Z</time>
      </trkpt>
      <trkpt lat="45.47165" lon="4.74504">
        <ele>331</ele>
        <time>2021-11-19T23:31:52Z</time>
      </trkpt>
      <trkpt lat="45.47095" lon="4.74688">
        <ele>330</ele>
        <time>2021-11-19T23:32:26Z</time>
      </trkpt>
      <trkpt lat="45.47091" lon="4.74717">
        <ele>330</ele>
        <time>2021-11-19T23:32:31Z</time>
      </trkpt>
      <trkpt lat="45.471" lon="4.74768">
        <ele>329</ele>
        <time>2021-11-19T23:32:39Z</time>
      </trkpt>
      <trkpt lat="45.47101" lon="4.74789">
        <ele>329</ele>
        <time>2021-11-19T23:32:43Z</time>
      </trkpt>
      <trkpt lat="45.47089" lon="4.74849">
        <ele>328</ele>
        <time>2021-11-19T23:32:53Z</time>
      </trkpt>
      <trkpt lat="45.47047" lon="4.75026">
        <ele>325</ele>
        <time>2021-11-19T23:33:24Z</time>
      </trkpt>
      <trkpt lat="45.46961" lon="4.7499">
        <ele>326</ele>
        <time>2021-11-19T23:33:45Z</time>
      </trkpt>
      <trkpt lat="45.46792" lon="4.74909">
        <ele>326</ele>
        <time>2021-11-19T23:34:26Z</time>
      </trkpt>
      <trkpt lat="45.46743" lon="4.74888">
        <ele>326</ele>
        <time>2021-11-19T23:34:38Z</time>
      </trkpt>
      <trkpt lat="45.46724" lon="4.74877">
        <ele>325</ele>
        <time>2021-11-19T23:34:43Z</time>
      </trkpt>
      <trkpt lat="45.46737" lon="4.74787">
        <ele>324</ele>
        <time>2021-11-19T23:34:58Z</time>
      </trkpt>
      <trkpt lat="45.46753" lon="4.74713">
        <ele>323</ele>
        <time>2021-11-19T23:35:11Z</time>
      </trkpt>
      <trkpt lat="45.46718" lon="4.74711">
        <ele>320</ele>
        <time>2021-11-19T23:35:19Z</time>
      </trkpt>
      <trkpt lat="45.46666" lon="4.74722">
        <ele>316</ele>
        <time>2021-11-19T23:35:31Z</time>
      </trkpt>
      <trkpt lat="45.4666" lon="4.74721">
        <ele>315</ele>
        <time>2021-11-19T23:35:33Z</time>
      </trkpt>
      <trkpt lat="45.46653" lon="4.74715">
        <ele>314</ele>
        <time>2021-11-19T23:35:34Z</time>
      </trkpt>
      <trkpt lat="45.46646" lon="4.74715">
        <ele>313</ele>
        <time>2021-11-19T23:35:36Z</time>
      </trkpt>
      <trkpt lat="45.46607" lon="4.74728">
        <ele>310</ele>
        <time>2021-11-19T23:35:45Z</time>
      </trkpt>
      <trkpt lat="45.4654" lon="4.74759">
        <ele>304</ele>
        <time>2021-11-19T23:36:02Z</time>
      </trkpt>
      <trkpt lat="45.46527" lon="4.74758">
        <ele>303</ele>
        <time>2021-11-19T23:36:05Z</time>
      </trkpt>
      <trkpt lat="45.46527" lon="4.7475">
        <ele>302</ele>
        <time>2021-11-19T23:36:06Z</time>
      </trkpt>
      <trkpt lat="45.46533" lon="4.74736">
        <ele>302</ele>
        <time>2021-11-19T23:36:09Z</time>
      </trkpt>
      <trkpt lat="45.46542" lon="4.74699">
        <ele>302</ele>
        <time>2021-11-19T23:36:15Z</time>
      </trkpt>
      <trkpt lat="45.46545" lon="4.74645">
        <ele>301</ele>
        <time>2021-11-19T23:36:24Z</time>
      </trkpt>
      <trkpt lat="45.46542" lon="4.74628">
        <ele>302</ele>
        <time>2021-11-19T23:36:27Z</time>
      </trkpt>
      <trkpt lat="45.46522" lon="4.74621">
        <ele>302</ele>
        <time>2021-11-19T23:36:32Z</time>
      </trkpt>
      <trkpt lat="45.46501" lon="4.74622">
        <ele>301</ele>
        <time>2021-11-19T23:36:37Z</time>
      </trkpt>
      <trkpt lat="45.46486" lon="4.74628">
        <ele>302</ele>
        <time>2021-11-19T23:36:40Z</time>
      </trkpt>
      <trkpt lat="45.46477" lon="4.7465">
        <ele>301</ele>
        <time>2021-11-19T23:36:45Z</time>
      </trkpt>
      <trkpt lat="45.46458" lon="4.74681">
        <ele>302</ele>
        <time>2021-11-19T23:36:51Z</time>
      </trkpt>
      <trkpt lat="45.46447" lon="4.74689">
        <ele>302</ele>
        <time>2021-11-19T23:36:54Z</time>
      </trkpt>
      <trkpt lat="45.46441" lon="4.74697">
        <ele>302</ele>
        <time>2021-11-19T23:36:56Z</time>
      </trkpt>
      <trkpt lat="45.46381" lon="4.74732">
        <ele>304</ele>
        <time>2021-11-19T23:37:11Z</time>
      </trkpt>
      <trkpt lat="45.46363" lon="4.74748">
        <ele>305</ele>
        <time>2021-11-19T23:37:16Z</time>
      </trkpt>
      <trkpt lat="45.46311" lon="4.74802">
        <ele>303</ele>
        <time>2021-11-19T23:37:31Z</time>
      </trkpt>
      <trkpt lat="45.46264" lon="4.74871">
        <ele>299</ele>
        <time>2021-11-19T23:37:47Z</time>
      </trkpt>
      <trkpt lat="45.46253" lon="4.74874">
        <ele>299</ele>
        <time>2021-11-19T23:37:50Z</time>
      </trkpt>
      <trkpt lat="45.46241" lon="4.74869">
        <ele>299</ele>
        <time>2021-11-19T23:37:53Z</time>
      </trkpt>
      <trkpt lat="45.46222" lon="4.74938">
        <ele>294</ele>
        <time>2021-11-19T23:38:05Z</time>
      </trkpt>
      <trkpt lat="45.46196" lon="4.75">
        <ele>290</ele>
        <time>2021-11-19T23:38:17Z</time>
      </trkpt>
      <trkpt lat="45.46181" lon="4.75021">
        <ele>288</ele>
        <time>2021-11-19T23:38:21Z</time>
      </trkpt>
      <trkpt lat="45.46146" lon="4.75058">
        <ele>279</ele>
        <time>2021-11-19T23:38:32Z</time>
      </trkpt>
      <trkpt lat="45.46127" lon="4.75071">
        <ele>273</ele>
        <time>2021-11-19T23:38:37Z</time>
      </trkpt>
      <trkpt lat="45.46121" lon="4.75071">
        <ele>272</ele>
        <time>2021-11-19T23:38:38Z</time>
      </trkpt>
      <trkpt lat="45.46135" lon="4.75153">
        <ele>263</ele>
        <time>2021-11-19T23:38:52Z</time>
      </trkpt>
      <trkpt lat="45.46133" lon="4.75229">
        <ele>254</ele>
        <time>2021-11-19T23:39:04Z</time>
      </trkpt>
      <trkpt lat="45.46106" lon="4.75286">
        <ele>248</ele>
        <time>2021-11-19T23:39:15Z</time>
      </trkpt>
      <trkpt lat="45.46105" lon="4.75316">
        <ele>247</ele>
        <time>2021-11-19T23:39:20Z</time>
      </trkpt>
      <trkpt lat="45.46097" lon="4.75342">
        <ele>246</ele>
        <time>2021-11-19T23:39:25Z</time>
      </trkpt>
      <trkpt lat="45.46072" lon="4.75386">
        <ele>238</ele>
        <time>2021-11-19T23:39:34Z</time>
      </trkpt>
      <trkpt lat="45.46062" lon="4.75399">
        <ele>234</ele>
        <time>2021-11-19T23:39:38Z</time>
      </trkpt>
      <trkpt lat="45.46051" lon="4.75424">
        <ele>230</ele>
        <time>2021-11-19T23:39:42Z</time>
      </trkpt>
      <trkpt lat="45.46039" lon="4.75464">
        <ele>227</ele>
        <time>2021-11-19T23:39:49Z</time>
      </trkpt>
      <trkpt lat="45.46031" lon="4.75547">
        <ele>225</ele>
        <time>2021-11-19T23:40:03Z</time>
      </trkpt>
      <trkpt lat="45.46032" lon="4.75605">
        <ele>221</ele>
        <time>2021-11-19T23:40:13Z</time>
      </trkpt>
      <trkpt lat="45.46028" lon="4.75648">
        <ele>215</ele>
        <time>2021-11-19T23:40:20Z</time>
      </trkpt>
      <trkpt lat="45.46037" lon="4.75713">
        <ele>203</ele>
        <time>2021-11-19T23:40:31Z</time>
      </trkpt>
      <trkpt lat="45.46048" lon="4.75735">
        <ele>198</ele>
        <time>2021-11-19T23:40:35Z</time>
      </trkpt>
      <trkpt lat="45.46059" lon="4.7575">
        <ele>194</ele>
        <time>2021-11-19T23:40:39Z</time>
      </trkpt>
      <trkpt lat="45.46061" lon="4.75768">
        <ele>190</ele>
        <time>2021-11-19T23:40:42Z</time>
      </trkpt>
      <trkpt lat="45.46064" lon="4.75769">
        <ele>189</ele>
        <time>2021-11-19T23:40:42Z</time>
      </trkpt>
      <trkpt lat="45.46066" lon="4.75767">
        <ele>189</ele>
        <time>2021-11-19T23:40:43Z</time>
      </trkpt>
      <trkpt lat="45.46068" lon="4.75748">
        <ele>193</ele>
        <time>2021-11-19T23:40:46Z</time>
      </trkpt>
      <trkpt lat="45.46052" lon="4.75698">
        <ele>203</ele>
        <time>2021-11-19T23:40:55Z</time>
      </trkpt>
      <trkpt lat="45.46049" lon="4.75675">
        <ele>207</ele>
        <time>2021-11-19T23:40:59Z</time>
      </trkpt>
      <trkpt lat="45.46051" lon="4.75662">
        <ele>209</ele>
        <time>2021-11-19T23:41:01Z</time>
      </trkpt>
      <trkpt lat="45.46052" lon="4.75676">
        <ele>207</ele>
        <time>2021-11-19T23:41:03Z</time>
      </trkpt>
      <trkpt lat="45.4606" lon="4.75703">
        <ele>201</ele>
        <time>2021-11-19T23:41:08Z</time>
      </trkpt>
      <trkpt lat="45.46067" lon="4.75715">
        <ele>198</ele>
        <time>2021-11-19T23:41:11Z</time>
      </trkpt>
      <trkpt lat="45.46075" lon="4.75723">
        <ele>195</ele>
        <time>2021-11-19T23:41:13Z</time>
      </trkpt>
      <trkpt lat="45.46091" lon="4.75752">
        <ele>191</ele>
        <time>2021-11-19T23:41:19Z</time>
      </trkpt>
      <trkpt lat="45.46094" lon="4.75765">
        <ele>190</ele>
        <time>2021-11-19T23:41:21Z</time>
      </trkpt>
      <trkpt lat="45.46095" lon="4.75792">
        <ele>186</ele>
        <time>2021-11-19T23:41:26Z</time>
      </trkpt>
      <trkpt lat="45.46086" lon="4.75895">
        <ele>168</ele>
        <time>2021-11-19T23:41:43Z</time>
      </trkpt>
      <trkpt lat="45.4609" lon="4.75904">
        <ele>167</ele>
        <time>2021-11-19T23:41:44Z</time>
      </trkpt>
      <trkpt lat="45.46083" lon="4.75912">
        <ele>164</ele>
        <time>2021-11-19T23:41:47Z</time>
      </trkpt>
      <trkpt lat="45.46053" lon="4.75922">
        <ele>160</ele>
        <time>2021-11-19T23:41:54Z</time>
      </trkpt>
      <trkpt lat="45.46022" lon="4.75928">
        <ele>157</ele>
        <time>2021-11-19T23:42:01Z</time>
      </trkpt>
      <trkpt lat="45.4601" lon="4.75938">
        <ele>155</ele>
        <time>2021-11-19T23:42:04Z</time>
      </trkpt>
      <trkpt lat="45.46007" lon="4.75928">
        <ele>156</ele>
        <time>2021-11-19T23:42:06Z</time>
      </trkpt>
      <trkpt lat="45.45964" lon="4.75949">
        <ele>151</ele>
        <time>2021-11-19T23:42:17Z</time>
      </trkpt>
      <trkpt lat="45.45956" lon="4.75948">
        <ele>151</ele>
        <time>2021-11-19T23:42:19Z</time>
      </trkpt>
      <trkpt lat="45.45939" lon="4.75926">
        <ele>151</ele>
        <time>2021-11-19T23:42:24Z</time>
      </trkpt>
      <trkpt lat="45.45904" lon="4.75893">
        <ele>151</ele>
        <time>2021-11-19T23:42:34Z</time>
      </trkpt>
      <trkpt lat="45.45895" lon="4.7589">
        <ele>151</ele>
        <time>2021-11-19T23:42:36Z</time>
      </trkpt>
      <trkpt lat="45.45876" lon="4.75897">
        <ele>149</ele>
        <time>2021-11-19T23:42:40Z</time>
      </trkpt>
      <trkpt lat="45.45862" lon="4.75908">
        <ele>148</ele>
        <time>2021-11-19T23:42:44Z</time>
      </trkpt>
      <trkpt lat="45.45852" lon="4.7592">
        <ele>147</ele>
        <time>2021-11-19T23:42:47Z</time>
      </trkpt>
      <trkpt lat="45.45839" lon="4.75945">
        <ele>146</ele>
        <time>2021-11-19T23:42:52Z</time>
      </trkpt>
      <trkpt lat="45.4583" lon="4.75969">
        <ele>146</ele>
        <time>2021-11-19T23:42:57Z</time>
      </trkpt>
      <trkpt lat="45.45876" lon="4.7608">
        <ele>146</ele>
        <time>2021-11-19T23:43:18Z</time>
      </trkpt>
      <trkpt lat="45.45849" lon="4.76124">
        <ele>146</ele>
        <time>2021-11-19T23:43:28Z</time>
      </trkpt>
      <trkpt lat="45.4582" lon="4.76163">
        <ele>145</ele>
        <time>2021-11-19T23:43:37Z</time>
      </trkpt>
      <trkpt lat="45.45811" lon="4.7615">
        <ele>145</ele>
        <time>2021-11-19T23:43:40Z</time>
      </trkpt>
      <trkpt lat="45.4579" lon="4.76156">
        <ele>145</ele>
        <time>2021-11-19T23:43:45Z</time>
      </trkpt>
      <trkpt lat="45.4581" lon="4.76318">
        <ele>146</ele>
        <time>2021-11-19T23:44:12Z</time>
      </trkpt>
      <trkpt lat="45.45827" lon="4.76491">
        <ele>147</ele>
        <time>2021-11-19T23:44:40Z</time>
      </trkpt>
    </trkseg>
  </trk>
</gpx>